<?xml version="1.0" encoding="UTF-8" standalone="no" ?>
<gpx xmlns="http://www.topografix.com/GPX/1/1" xmlns:xsi="http://www.w3.org/2001/XMLSchema-instance" xsi:schemaLocation="http://www.topografix.com/GPX/1/1 http://www.topografix.com/GPX/1/1/gpx.xsd" version="1.1" creator="VisuGPX - https://www.visugpx.com">
  <metadata>
    <name>2024-10-13  VTT TwoNav</name>
    <desc><![CDATA[2024-10-13_115421.trk]]></desc>
  </metadata>
  <trk>
    <name><![CDATA[2024-10-13  VTT TwoNav_1]]></name>
    <trkseg>
      <trkpt lat="47.79491" lon="7.08204">
        <ele>471.8</ele>
        <time>2024-10-13T09:54:21Z</time>
      </trkpt>
      <trkpt lat="47.79491" lon="7.08202">
        <ele>471.7</ele>
        <time>2024-10-13T09:54:22Z</time>
      </trkpt>
      <trkpt lat="47.79491" lon="7.08201">
        <ele>471.7</ele>
        <time>2024-10-13T09:54:23Z</time>
      </trkpt>
      <trkpt lat="47.79491" lon="7.08199">
        <ele>471.7</ele>
        <time>2024-10-13T09:54:24Z</time>
      </trkpt>
      <trkpt lat="47.79492" lon="7.08197">
        <ele>471.8</ele>
        <time>2024-10-13T09:54:25Z</time>
      </trkpt>
      <trkpt lat="47.79492" lon="7.08196">
        <ele>471.8</ele>
        <time>2024-10-13T09:54:38Z</time>
      </trkpt>
      <trkpt lat="47.79492" lon="7.08194">
        <ele>471.8</ele>
        <time>2024-10-13T09:54:39Z</time>
      </trkpt>
      <trkpt lat="47.79493" lon="7.08192">
        <ele>471.9</ele>
        <time>2024-10-13T09:54:40Z</time>
      </trkpt>
      <trkpt lat="47.79493" lon="7.0819">
        <ele>471.9</ele>
        <time>2024-10-13T09:54:42Z</time>
      </trkpt>
      <trkpt lat="47.79493" lon="7.08189">
        <ele>472</ele>
        <time>2024-10-13T09:54:43Z</time>
      </trkpt>
      <trkpt lat="47.79494" lon="7.08187">
        <ele>472</ele>
        <time>2024-10-13T09:54:45Z</time>
      </trkpt>
      <trkpt lat="47.79494" lon="7.08185">
        <ele>472</ele>
        <time>2024-10-13T09:54:46Z</time>
      </trkpt>
      <trkpt lat="47.79494" lon="7.08184">
        <ele>472.1</ele>
        <time>2024-10-13T09:54:47Z</time>
      </trkpt>
      <trkpt lat="47.79495" lon="7.08182">
        <ele>472.1</ele>
        <time>2024-10-13T09:54:48Z</time>
      </trkpt>
      <trkpt lat="47.79495" lon="7.0818">
        <ele>472.1</ele>
        <time>2024-10-13T09:54:49Z</time>
      </trkpt>
      <trkpt lat="47.79495" lon="7.08179">
        <ele>472.2</ele>
        <time>2024-10-13T09:54:50Z</time>
      </trkpt>
      <trkpt lat="47.79496" lon="7.08177">
        <ele>472.2</ele>
        <time>2024-10-13T09:54:51Z</time>
      </trkpt>
      <trkpt lat="47.79496" lon="7.08175">
        <ele>472.2</ele>
        <time>2024-10-13T09:54:52Z</time>
      </trkpt>
      <trkpt lat="47.79496" lon="7.08173">
        <ele>472.2</ele>
        <time>2024-10-13T09:55:01Z</time>
      </trkpt>
      <trkpt lat="47.79496" lon="7.08172">
        <ele>472.2</ele>
        <time>2024-10-13T09:55:12Z</time>
      </trkpt>
      <trkpt lat="47.79497" lon="7.0817">
        <ele>472.3</ele>
        <time>2024-10-13T09:55:18Z</time>
      </trkpt>
      <trkpt lat="47.79497" lon="7.08168">
        <ele>472.3</ele>
        <time>2024-10-13T09:55:18Z</time>
      </trkpt>
      <trkpt lat="47.79498" lon="7.08167">
        <ele>472.4</ele>
        <time>2024-10-13T09:55:19Z</time>
      </trkpt>
      <trkpt lat="47.79498" lon="7.08167">
        <ele>472.5</ele>
        <time>2024-10-13T09:55:20Z</time>
      </trkpt>
      <trkpt lat="47.79499" lon="7.08166">
        <ele>472.6</ele>
        <time>2024-10-13T09:55:21Z</time>
      </trkpt>
      <trkpt lat="47.79507" lon="7.08158">
        <ele>473.9</ele>
        <time>2024-10-13T09:55:32Z</time>
      </trkpt>
      <trkpt lat="47.79513" lon="7.08144">
        <ele>475.5</ele>
        <time>2024-10-13T09:55:46Z</time>
      </trkpt>
      <trkpt lat="47.79515" lon="7.08129">
        <ele>477.1</ele>
        <time>2024-10-13T09:55:51Z</time>
      </trkpt>
      <trkpt lat="47.79522" lon="7.08121">
        <ele>478.4</ele>
        <time>2024-10-13T09:56:00Z</time>
      </trkpt>
      <trkpt lat="47.79529" lon="7.08111">
        <ele>479.9</ele>
        <time>2024-10-13T09:56:17Z</time>
      </trkpt>
      <trkpt lat="47.79532" lon="7.08098">
        <ele>481.4</ele>
        <time>2024-10-13T09:56:24Z</time>
      </trkpt>
      <trkpt lat="47.79538" lon="7.08085">
        <ele>483.2</ele>
        <time>2024-10-13T09:56:31Z</time>
      </trkpt>
      <trkpt lat="47.79543" lon="7.08074">
        <ele>484.9</ele>
        <time>2024-10-13T09:56:41Z</time>
      </trkpt>
      <trkpt lat="47.79548" lon="7.08062">
        <ele>486.8</ele>
        <time>2024-10-13T09:56:50Z</time>
      </trkpt>
      <trkpt lat="47.79549" lon="7.08048">
        <ele>488.7</ele>
        <time>2024-10-13T09:56:59Z</time>
      </trkpt>
      <trkpt lat="47.7955" lon="7.08034">
        <ele>490.6</ele>
        <time>2024-10-13T09:57:09Z</time>
      </trkpt>
      <trkpt lat="47.79554" lon="7.08022">
        <ele>492.5</ele>
        <time>2024-10-13T09:57:19Z</time>
      </trkpt>
      <trkpt lat="47.79556" lon="7.08008">
        <ele>494.5</ele>
        <time>2024-10-13T09:57:26Z</time>
      </trkpt>
      <trkpt lat="47.79559" lon="7.07994">
        <ele>496.6</ele>
        <time>2024-10-13T09:57:34Z</time>
      </trkpt>
      <trkpt lat="47.79556" lon="7.07981">
        <ele>498.6</ele>
        <time>2024-10-13T09:57:45Z</time>
      </trkpt>
      <trkpt lat="47.79557" lon="7.07967">
        <ele>500.7</ele>
        <time>2024-10-13T09:57:55Z</time>
      </trkpt>
      <trkpt lat="47.79556" lon="7.07954">
        <ele>502.8</ele>
        <time>2024-10-13T09:58:04Z</time>
      </trkpt>
      <trkpt lat="47.79552" lon="7.07942">
        <ele>504.9</ele>
        <time>2024-10-13T09:58:16Z</time>
      </trkpt>
      <trkpt lat="47.7955" lon="7.07927">
        <ele>507.1</ele>
        <time>2024-10-13T09:58:25Z</time>
      </trkpt>
      <trkpt lat="47.79547" lon="7.07914">
        <ele>509</ele>
        <time>2024-10-13T09:58:33Z</time>
      </trkpt>
      <trkpt lat="47.79547" lon="7.079">
        <ele>511</ele>
        <time>2024-10-13T09:58:45Z</time>
      </trkpt>
      <trkpt lat="47.79553" lon="7.0789">
        <ele>513.2</ele>
        <time>2024-10-13T09:59:06Z</time>
      </trkpt>
      <trkpt lat="47.79562" lon="7.07894">
        <ele>515.9</ele>
        <time>2024-10-13T09:59:23Z</time>
      </trkpt>
      <trkpt lat="47.79571" lon="7.07894">
        <ele>518.5</ele>
        <time>2024-10-13T09:59:36Z</time>
      </trkpt>
      <trkpt lat="47.7958" lon="7.07889">
        <ele>521.3</ele>
        <time>2024-10-13T09:59:49Z</time>
      </trkpt>
      <trkpt lat="47.79585" lon="7.07878">
        <ele>523.8</ele>
        <time>2024-10-13T10:00:02Z</time>
      </trkpt>
      <trkpt lat="47.79589" lon="7.07865">
        <ele>526.5</ele>
        <time>2024-10-13T10:00:12Z</time>
      </trkpt>
      <trkpt lat="47.79594" lon="7.07853">
        <ele>528.9</ele>
        <time>2024-10-13T10:00:26Z</time>
      </trkpt>
      <trkpt lat="47.79598" lon="7.0784">
        <ele>531</ele>
        <time>2024-10-13T10:00:35Z</time>
      </trkpt>
      <trkpt lat="47.79602" lon="7.07828">
        <ele>532.8</ele>
        <time>2024-10-13T10:00:45Z</time>
      </trkpt>
      <trkpt lat="47.79606" lon="7.07816">
        <ele>534.3</ele>
        <time>2024-10-13T10:00:53Z</time>
      </trkpt>
      <trkpt lat="47.79612" lon="7.07806">
        <ele>535.5</ele>
        <time>2024-10-13T10:01:00Z</time>
      </trkpt>
      <trkpt lat="47.79618" lon="7.07796">
        <ele>536.7</ele>
        <time>2024-10-13T10:01:09Z</time>
      </trkpt>
      <trkpt lat="47.79623" lon="7.07783">
        <ele>537.7</ele>
        <time>2024-10-13T10:01:18Z</time>
      </trkpt>
      <trkpt lat="47.79625" lon="7.0777">
        <ele>538.7</ele>
        <time>2024-10-13T10:01:28Z</time>
      </trkpt>
      <trkpt lat="47.79629" lon="7.07756">
        <ele>539.7</ele>
        <time>2024-10-13T10:01:36Z</time>
      </trkpt>
      <trkpt lat="47.79637" lon="7.0775">
        <ele>540.7</ele>
        <time>2024-10-13T10:01:47Z</time>
      </trkpt>
      <trkpt lat="47.79645" lon="7.07742">
        <ele>542</ele>
        <time>2024-10-13T10:01:55Z</time>
      </trkpt>
      <trkpt lat="47.79654" lon="7.07737">
        <ele>543.2</ele>
        <time>2024-10-13T10:02:05Z</time>
      </trkpt>
      <trkpt lat="47.79662" lon="7.07729">
        <ele>544.5</ele>
        <time>2024-10-13T10:02:14Z</time>
      </trkpt>
      <trkpt lat="47.79672" lon="7.07728">
        <ele>545.9</ele>
        <time>2024-10-13T10:02:24Z</time>
      </trkpt>
      <trkpt lat="47.7968" lon="7.07716">
        <ele>547.6</ele>
        <time>2024-10-13T10:02:36Z</time>
      </trkpt>
      <trkpt lat="47.79689" lon="7.07715">
        <ele>549.2</ele>
        <time>2024-10-13T10:02:47Z</time>
      </trkpt>
      <trkpt lat="47.79698" lon="7.07713">
        <ele>551</ele>
        <time>2024-10-13T10:03:03Z</time>
      </trkpt>
      <trkpt lat="47.79706" lon="7.07712">
        <ele>552.6</ele>
        <time>2024-10-13T10:03:18Z</time>
      </trkpt>
      <trkpt lat="47.79706" lon="7.07712">
        <ele>552.6</ele>
        <time>2024-10-13T10:03:19Z</time>
      </trkpt>
      <trkpt lat="47.79709" lon="7.07711">
        <ele>553.1</ele>
        <time>2024-10-13T10:03:33Z</time>
      </trkpt>
      <trkpt lat="47.79709" lon="7.07712">
        <ele>553.2</ele>
        <time>2024-10-13T10:03:34Z</time>
      </trkpt>
      <trkpt lat="47.79713" lon="7.07714">
        <ele>554</ele>
        <time>2024-10-13T10:03:43Z</time>
      </trkpt>
      <trkpt lat="47.79713" lon="7.07714">
        <ele>554</ele>
        <time>2024-10-13T10:03:44Z</time>
      </trkpt>
      <trkpt lat="47.79715" lon="7.07715">
        <ele>554.3</ele>
        <time>2024-10-13T10:04:02Z</time>
      </trkpt>
      <trkpt lat="47.79716" lon="7.07715">
        <ele>554.5</ele>
        <time>2024-10-13T10:04:03Z</time>
      </trkpt>
      <trkpt lat="47.79716" lon="7.07715">
        <ele>554.6</ele>
        <time>2024-10-13T10:04:04Z</time>
      </trkpt>
      <trkpt lat="47.79725" lon="7.07713">
        <ele>556.2</ele>
        <time>2024-10-13T10:04:14Z</time>
      </trkpt>
      <trkpt lat="47.79734" lon="7.07719">
        <ele>557.9</ele>
        <time>2024-10-13T10:04:23Z</time>
      </trkpt>
      <trkpt lat="47.79743" lon="7.07724">
        <ele>559.6</ele>
        <time>2024-10-13T10:04:30Z</time>
      </trkpt>
      <trkpt lat="47.79752" lon="7.07727">
        <ele>561.3</ele>
        <time>2024-10-13T10:04:38Z</time>
      </trkpt>
      <trkpt lat="47.7976" lon="7.07735">
        <ele>563</ele>
        <time>2024-10-13T10:04:47Z</time>
      </trkpt>
      <trkpt lat="47.79768" lon="7.07739">
        <ele>564.7</ele>
        <time>2024-10-13T10:04:53Z</time>
      </trkpt>
      <trkpt lat="47.79776" lon="7.07749">
        <ele>566.6</ele>
        <time>2024-10-13T10:05:03Z</time>
      </trkpt>
      <trkpt lat="47.79784" lon="7.07757">
        <ele>568.7</ele>
        <time>2024-10-13T10:05:13Z</time>
      </trkpt>
      <trkpt lat="47.79789" lon="7.07768">
        <ele>570.7</ele>
        <time>2024-10-13T10:05:25Z</time>
      </trkpt>
      <trkpt lat="47.79798" lon="7.07772">
        <ele>572.7</ele>
        <time>2024-10-13T10:05:38Z</time>
      </trkpt>
      <trkpt lat="47.79807" lon="7.07776">
        <ele>574.7</ele>
        <time>2024-10-13T10:05:50Z</time>
      </trkpt>
      <trkpt lat="47.79816" lon="7.07781">
        <ele>576.8</ele>
        <time>2024-10-13T10:06:00Z</time>
      </trkpt>
      <trkpt lat="47.79825" lon="7.07779">
        <ele>579</ele>
        <time>2024-10-13T10:06:11Z</time>
      </trkpt>
      <trkpt lat="47.79834" lon="7.07778">
        <ele>581.4</ele>
        <time>2024-10-13T10:06:27Z</time>
      </trkpt>
      <trkpt lat="47.79843" lon="7.07774">
        <ele>583.9</ele>
        <time>2024-10-13T10:06:37Z</time>
      </trkpt>
      <trkpt lat="47.79852" lon="7.07772">
        <ele>586.4</ele>
        <time>2024-10-13T10:06:49Z</time>
      </trkpt>
      <trkpt lat="47.79857" lon="7.0776">
        <ele>588.9</ele>
        <time>2024-10-13T10:07:04Z</time>
      </trkpt>
      <trkpt lat="47.79864" lon="7.07753">
        <ele>591.2</ele>
        <time>2024-10-13T10:07:13Z</time>
      </trkpt>
      <trkpt lat="47.79871" lon="7.07743">
        <ele>593.3</ele>
        <time>2024-10-13T10:07:24Z</time>
      </trkpt>
      <trkpt lat="47.79877" lon="7.07734">
        <ele>595.4</ele>
        <time>2024-10-13T10:07:36Z</time>
      </trkpt>
      <trkpt lat="47.79883" lon="7.0772">
        <ele>597.8</ele>
        <time>2024-10-13T10:07:44Z</time>
      </trkpt>
      <trkpt lat="47.79887" lon="7.07708">
        <ele>599.5</ele>
        <time>2024-10-13T10:07:51Z</time>
      </trkpt>
      <trkpt lat="47.79892" lon="7.07695">
        <ele>600.8</ele>
        <time>2024-10-13T10:08:00Z</time>
      </trkpt>
      <trkpt lat="47.79896" lon="7.07682">
        <ele>601.6</ele>
        <time>2024-10-13T10:08:10Z</time>
      </trkpt>
      <trkpt lat="47.79899" lon="7.07669">
        <ele>602.3</ele>
        <time>2024-10-13T10:08:20Z</time>
      </trkpt>
      <trkpt lat="47.79903" lon="7.07656">
        <ele>603</ele>
        <time>2024-10-13T10:08:27Z</time>
      </trkpt>
      <trkpt lat="47.79906" lon="7.07641">
        <ele>603.9</ele>
        <time>2024-10-13T10:08:34Z</time>
      </trkpt>
      <trkpt lat="47.79906" lon="7.07626">
        <ele>604.6</ele>
        <time>2024-10-13T10:08:44Z</time>
      </trkpt>
      <trkpt lat="47.79907" lon="7.07613">
        <ele>605.4</ele>
        <time>2024-10-13T10:08:53Z</time>
      </trkpt>
      <trkpt lat="47.7991" lon="7.07598">
        <ele>606.3</ele>
        <time>2024-10-13T10:09:01Z</time>
      </trkpt>
      <trkpt lat="47.79914" lon="7.07584">
        <ele>607.3</ele>
        <time>2024-10-13T10:09:08Z</time>
      </trkpt>
      <trkpt lat="47.79914" lon="7.0757">
        <ele>608.5</ele>
        <time>2024-10-13T10:09:16Z</time>
      </trkpt>
      <trkpt lat="47.79919" lon="7.07558">
        <ele>609.8</ele>
        <time>2024-10-13T10:09:25Z</time>
      </trkpt>
      <trkpt lat="47.79924" lon="7.07546">
        <ele>611.2</ele>
        <time>2024-10-13T10:09:34Z</time>
      </trkpt>
      <trkpt lat="47.7993" lon="7.07535">
        <ele>612.3</ele>
        <time>2024-10-13T10:09:47Z</time>
      </trkpt>
      <trkpt lat="47.79939" lon="7.07528">
        <ele>613.2</ele>
        <time>2024-10-13T10:09:56Z</time>
      </trkpt>
      <trkpt lat="47.79944" lon="7.07517">
        <ele>613.8</ele>
        <time>2024-10-13T10:10:04Z</time>
      </trkpt>
      <trkpt lat="47.7995" lon="7.07506">
        <ele>614.3</ele>
        <time>2024-10-13T10:10:11Z</time>
      </trkpt>
      <trkpt lat="47.79953" lon="7.07493">
        <ele>614.7</ele>
        <time>2024-10-13T10:10:17Z</time>
      </trkpt>
      <trkpt lat="47.79959" lon="7.0748">
        <ele>615.1</ele>
        <time>2024-10-13T10:10:27Z</time>
      </trkpt>
      <trkpt lat="47.79966" lon="7.07471">
        <ele>615.5</ele>
        <time>2024-10-13T10:10:36Z</time>
      </trkpt>
      <trkpt lat="47.7997" lon="7.07458">
        <ele>615.9</ele>
        <time>2024-10-13T10:10:44Z</time>
      </trkpt>
      <trkpt lat="47.79972" lon="7.07444">
        <ele>616.3</ele>
        <time>2024-10-13T10:10:51Z</time>
      </trkpt>
      <trkpt lat="47.79975" lon="7.07429">
        <ele>616.8</ele>
        <time>2024-10-13T10:10:59Z</time>
      </trkpt>
      <trkpt lat="47.79982" lon="7.07421">
        <ele>617.4</ele>
        <time>2024-10-13T10:11:06Z</time>
      </trkpt>
      <trkpt lat="47.79983" lon="7.07407">
        <ele>618.2</ele>
        <time>2024-10-13T10:11:17Z</time>
      </trkpt>
      <trkpt lat="47.7999" lon="7.07399">
        <ele>619.1</ele>
        <time>2024-10-13T10:11:24Z</time>
      </trkpt>
      <trkpt lat="47.79993" lon="7.07386">
        <ele>619.9</ele>
        <time>2024-10-13T10:11:34Z</time>
      </trkpt>
      <trkpt lat="47.79999" lon="7.07375">
        <ele>620.4</ele>
        <time>2024-10-13T10:11:44Z</time>
      </trkpt>
      <trkpt lat="47.80005" lon="7.07364">
        <ele>620.4</ele>
        <time>2024-10-13T10:11:54Z</time>
      </trkpt>
      <trkpt lat="47.80014" lon="7.07359">
        <ele>620.3</ele>
        <time>2024-10-13T10:12:02Z</time>
      </trkpt>
      <trkpt lat="47.80022" lon="7.07351">
        <ele>620.3</ele>
        <time>2024-10-13T10:12:11Z</time>
      </trkpt>
      <trkpt lat="47.8003" lon="7.07343">
        <ele>620.3</ele>
        <time>2024-10-13T10:12:20Z</time>
      </trkpt>
      <trkpt lat="47.80038" lon="7.07336">
        <ele>620.2</ele>
        <time>2024-10-13T10:12:28Z</time>
      </trkpt>
      <trkpt lat="47.80043" lon="7.07324">
        <ele>620.2</ele>
        <time>2024-10-13T10:12:37Z</time>
      </trkpt>
      <trkpt lat="47.80052" lon="7.07316">
        <ele>620.1</ele>
        <time>2024-10-13T10:12:46Z</time>
      </trkpt>
      <trkpt lat="47.80059" lon="7.07306">
        <ele>620</ele>
        <time>2024-10-13T10:12:57Z</time>
      </trkpt>
      <trkpt lat="47.80067" lon="7.07298">
        <ele>619.8</ele>
        <time>2024-10-13T10:13:07Z</time>
      </trkpt>
      <trkpt lat="47.80076" lon="7.07289">
        <ele>619.5</ele>
        <time>2024-10-13T10:13:16Z</time>
      </trkpt>
      <trkpt lat="47.80083" lon="7.07281">
        <ele>619.3</ele>
        <time>2024-10-13T10:13:23Z</time>
      </trkpt>
      <trkpt lat="47.80091" lon="7.07273">
        <ele>619</ele>
        <time>2024-10-13T10:13:31Z</time>
      </trkpt>
      <trkpt lat="47.801" lon="7.07267">
        <ele>618.6</ele>
        <time>2024-10-13T10:13:39Z</time>
      </trkpt>
      <trkpt lat="47.80108" lon="7.0726">
        <ele>617.9</ele>
        <time>2024-10-13T10:13:51Z</time>
      </trkpt>
      <trkpt lat="47.80113" lon="7.07249">
        <ele>617</ele>
        <time>2024-10-13T10:13:58Z</time>
      </trkpt>
      <trkpt lat="47.80118" lon="7.07236">
        <ele>615.9</ele>
        <time>2024-10-13T10:14:08Z</time>
      </trkpt>
      <trkpt lat="47.80126" lon="7.07227">
        <ele>615</ele>
        <time>2024-10-13T10:14:19Z</time>
      </trkpt>
      <trkpt lat="47.80129" lon="7.07215">
        <ele>614.4</ele>
        <time>2024-10-13T10:14:33Z</time>
      </trkpt>
      <trkpt lat="47.80129" lon="7.07215">
        <ele>614.4</ele>
        <time>2024-10-13T10:14:34Z</time>
      </trkpt>
      <trkpt lat="47.80128" lon="7.07215">
        <ele>614.4</ele>
        <time>2024-10-13T10:14:48Z</time>
      </trkpt>
      <trkpt lat="47.80128" lon="7.07215">
        <ele>614.3</ele>
        <time>2024-10-13T10:14:49Z</time>
      </trkpt>
      <trkpt lat="47.80131" lon="7.0722">
        <ele>614.2</ele>
        <time>2024-10-13T10:14:58Z</time>
      </trkpt>
      <trkpt lat="47.80131" lon="7.0722">
        <ele>614.2</ele>
        <time>2024-10-13T10:14:59Z</time>
      </trkpt>
      <trkpt lat="47.80132" lon="7.07221">
        <ele>614.2</ele>
        <time>2024-10-13T10:15:00Z</time>
      </trkpt>
      <trkpt lat="47.80132" lon="7.07223">
        <ele>614.1</ele>
        <time>2024-10-13T10:15:03Z</time>
      </trkpt>
      <trkpt lat="47.80132" lon="7.07224">
        <ele>614.1</ele>
        <time>2024-10-13T10:15:04Z</time>
      </trkpt>
      <trkpt lat="47.80141" lon="7.07221">
        <ele>613.7</ele>
        <time>2024-10-13T10:15:14Z</time>
      </trkpt>
      <trkpt lat="47.80146" lon="7.07219">
        <ele>613.4</ele>
        <time>2024-10-13T10:15:18Z</time>
      </trkpt>
      <trkpt lat="47.80147" lon="7.07219">
        <ele>613.4</ele>
        <time>2024-10-13T10:15:19Z</time>
      </trkpt>
      <trkpt lat="47.80147" lon="7.07218">
        <ele>613.4</ele>
        <time>2024-10-13T10:15:22Z</time>
      </trkpt>
      <trkpt lat="47.80146" lon="7.07219">
        <ele>613.3</ele>
        <time>2024-10-13T10:15:23Z</time>
      </trkpt>
      <trkpt lat="47.80146" lon="7.07219">
        <ele>613.3</ele>
        <time>2024-10-13T10:15:24Z</time>
      </trkpt>
      <trkpt lat="47.80148" lon="7.07219">
        <ele>613.2</ele>
        <time>2024-10-13T10:15:30Z</time>
      </trkpt>
      <trkpt lat="47.80148" lon="7.07219">
        <ele>613.2</ele>
        <time>2024-10-13T10:15:31Z</time>
      </trkpt>
      <trkpt lat="47.80148" lon="7.07218">
        <ele>613.3</ele>
        <time>2024-10-13T10:15:32Z</time>
      </trkpt>
      <trkpt lat="47.80148" lon="7.07218">
        <ele>613.3</ele>
        <time>2024-10-13T10:15:52Z</time>
      </trkpt>
      <trkpt lat="47.80148" lon="7.07217">
        <ele>613.4</ele>
        <time>2024-10-13T10:15:53Z</time>
      </trkpt>
      <trkpt lat="47.80148" lon="7.07217">
        <ele>613.4</ele>
        <time>2024-10-13T10:15:54Z</time>
      </trkpt>
      <trkpt lat="47.80154" lon="7.07205">
        <ele>614.9</ele>
        <time>2024-10-13T10:16:01Z</time>
      </trkpt>
      <trkpt lat="47.80159" lon="7.07191">
        <ele>616.7</ele>
        <time>2024-10-13T10:16:10Z</time>
      </trkpt>
      <trkpt lat="47.80167" lon="7.07181">
        <ele>618.8</ele>
        <time>2024-10-13T10:16:14Z</time>
      </trkpt>
      <trkpt lat="47.80173" lon="7.0717">
        <ele>620.6</ele>
        <time>2024-10-13T10:16:24Z</time>
      </trkpt>
      <trkpt lat="47.80183" lon="7.07171">
        <ele>622.3</ele>
        <time>2024-10-13T10:16:41Z</time>
      </trkpt>
      <trkpt lat="47.80193" lon="7.07175">
        <ele>623.7</ele>
        <time>2024-10-13T10:16:51Z</time>
      </trkpt>
      <trkpt lat="47.80199" lon="7.07165">
        <ele>624.8</ele>
        <time>2024-10-13T10:16:58Z</time>
      </trkpt>
      <trkpt lat="47.80204" lon="7.07155">
        <ele>625.9</ele>
        <time>2024-10-13T10:17:04Z</time>
      </trkpt>
      <trkpt lat="47.8021" lon="7.07143">
        <ele>627.3</ele>
        <time>2024-10-13T10:17:12Z</time>
      </trkpt>
      <trkpt lat="47.80216" lon="7.07132">
        <ele>628.9</ele>
        <time>2024-10-13T10:17:22Z</time>
      </trkpt>
      <trkpt lat="47.8022" lon="7.07119">
        <ele>630.6</ele>
        <time>2024-10-13T10:17:35Z</time>
      </trkpt>
      <trkpt lat="47.80226" lon="7.07108">
        <ele>632.5</ele>
        <time>2024-10-13T10:17:52Z</time>
      </trkpt>
      <trkpt lat="47.80233" lon="7.071">
        <ele>634.6</ele>
        <time>2024-10-13T10:18:01Z</time>
      </trkpt>
      <trkpt lat="47.8024" lon="7.07091">
        <ele>636.5</ele>
        <time>2024-10-13T10:18:09Z</time>
      </trkpt>
      <trkpt lat="47.80246" lon="7.0708">
        <ele>638.2</ele>
        <time>2024-10-13T10:18:24Z</time>
      </trkpt>
      <trkpt lat="47.80252" lon="7.07069">
        <ele>639.8</ele>
        <time>2024-10-13T10:18:32Z</time>
      </trkpt>
      <trkpt lat="47.80258" lon="7.07058">
        <ele>641.2</ele>
        <time>2024-10-13T10:18:41Z</time>
      </trkpt>
      <trkpt lat="47.80265" lon="7.07048">
        <ele>642.6</ele>
        <time>2024-10-13T10:18:52Z</time>
      </trkpt>
      <trkpt lat="47.8027" lon="7.07037">
        <ele>644</ele>
        <time>2024-10-13T10:19:00Z</time>
      </trkpt>
      <trkpt lat="47.80276" lon="7.07024">
        <ele>645.6</ele>
        <time>2024-10-13T10:19:08Z</time>
      </trkpt>
      <trkpt lat="47.80278" lon="7.07011">
        <ele>647.1</ele>
        <time>2024-10-13T10:19:16Z</time>
      </trkpt>
      <trkpt lat="47.80281" lon="7.06998">
        <ele>648.5</ele>
        <time>2024-10-13T10:19:24Z</time>
      </trkpt>
      <trkpt lat="47.80281" lon="7.06984">
        <ele>649.8</ele>
        <time>2024-10-13T10:19:32Z</time>
      </trkpt>
      <trkpt lat="47.80281" lon="7.0697">
        <ele>651.1</ele>
        <time>2024-10-13T10:19:40Z</time>
      </trkpt>
      <trkpt lat="47.80279" lon="7.06956">
        <ele>652.6</ele>
        <time>2024-10-13T10:19:50Z</time>
      </trkpt>
      <trkpt lat="47.80277" lon="7.06941">
        <ele>654.3</ele>
        <time>2024-10-13T10:20:00Z</time>
      </trkpt>
      <trkpt lat="47.80276" lon="7.06928">
        <ele>656</ele>
        <time>2024-10-13T10:20:09Z</time>
      </trkpt>
      <trkpt lat="47.80272" lon="7.06915">
        <ele>657.9</ele>
        <time>2024-10-13T10:20:18Z</time>
      </trkpt>
      <trkpt lat="47.80268" lon="7.06903">
        <ele>659.6</ele>
        <time>2024-10-13T10:20:27Z</time>
      </trkpt>
      <trkpt lat="47.80264" lon="7.06889">
        <ele>661.4</ele>
        <time>2024-10-13T10:20:38Z</time>
      </trkpt>
      <trkpt lat="47.80268" lon="7.06877">
        <ele>662.8</ele>
        <time>2024-10-13T10:20:48Z</time>
      </trkpt>
      <trkpt lat="47.80272" lon="7.06865">
        <ele>664.1</ele>
        <time>2024-10-13T10:21:02Z</time>
      </trkpt>
      <trkpt lat="47.80279" lon="7.06856">
        <ele>665.3</ele>
        <time>2024-10-13T10:21:13Z</time>
      </trkpt>
      <trkpt lat="47.80288" lon="7.06851">
        <ele>666.6</ele>
        <time>2024-10-13T10:21:21Z</time>
      </trkpt>
      <trkpt lat="47.80295" lon="7.06841">
        <ele>668</ele>
        <time>2024-10-13T10:21:30Z</time>
      </trkpt>
      <trkpt lat="47.80303" lon="7.06832">
        <ele>669.5</ele>
        <time>2024-10-13T10:21:39Z</time>
      </trkpt>
      <trkpt lat="47.80311" lon="7.06823">
        <ele>671.1</ele>
        <time>2024-10-13T10:21:49Z</time>
      </trkpt>
      <trkpt lat="47.8032" lon="7.06817">
        <ele>672.8</ele>
        <time>2024-10-13T10:22:02Z</time>
      </trkpt>
      <trkpt lat="47.80328" lon="7.0681">
        <ele>674.3</ele>
        <time>2024-10-13T10:22:11Z</time>
      </trkpt>
      <trkpt lat="47.80336" lon="7.06804">
        <ele>675.8</ele>
        <time>2024-10-13T10:22:21Z</time>
      </trkpt>
      <trkpt lat="47.80345" lon="7.06799">
        <ele>677.1</ele>
        <time>2024-10-13T10:22:28Z</time>
      </trkpt>
      <trkpt lat="47.80353" lon="7.06791">
        <ele>678.4</ele>
        <time>2024-10-13T10:22:38Z</time>
      </trkpt>
      <trkpt lat="47.8036" lon="7.06784">
        <ele>679.8</ele>
        <time>2024-10-13T10:22:48Z</time>
      </trkpt>
      <trkpt lat="47.80369" lon="7.06775">
        <ele>681.6</ele>
        <time>2024-10-13T10:22:57Z</time>
      </trkpt>
      <trkpt lat="47.80374" lon="7.06763">
        <ele>683.2</ele>
        <time>2024-10-13T10:23:04Z</time>
      </trkpt>
      <trkpt lat="47.80377" lon="7.06749">
        <ele>684.9</ele>
        <time>2024-10-13T10:23:12Z</time>
      </trkpt>
      <trkpt lat="47.80376" lon="7.06735">
        <ele>686.4</ele>
        <time>2024-10-13T10:23:21Z</time>
      </trkpt>
      <trkpt lat="47.80375" lon="7.06721">
        <ele>687.7</ele>
        <time>2024-10-13T10:23:30Z</time>
      </trkpt>
      <trkpt lat="47.80373" lon="7.06707">
        <ele>689.1</ele>
        <time>2024-10-13T10:23:39Z</time>
      </trkpt>
      <trkpt lat="47.80371" lon="7.06693">
        <ele>690.4</ele>
        <time>2024-10-13T10:23:49Z</time>
      </trkpt>
      <trkpt lat="47.80368" lon="7.0668">
        <ele>691.7</ele>
        <time>2024-10-13T10:23:59Z</time>
      </trkpt>
      <trkpt lat="47.80362" lon="7.0667">
        <ele>693.2</ele>
        <time>2024-10-13T10:24:09Z</time>
      </trkpt>
      <trkpt lat="47.80354" lon="7.06661">
        <ele>695.2</ele>
        <time>2024-10-13T10:24:20Z</time>
      </trkpt>
      <trkpt lat="47.80348" lon="7.0665">
        <ele>696.9</ele>
        <time>2024-10-13T10:24:30Z</time>
      </trkpt>
      <trkpt lat="47.80341" lon="7.0664">
        <ele>698.5</ele>
        <time>2024-10-13T10:24:40Z</time>
      </trkpt>
      <trkpt lat="47.80334" lon="7.0663">
        <ele>699.6</ele>
        <time>2024-10-13T10:24:48Z</time>
      </trkpt>
      <trkpt lat="47.80328" lon="7.06619">
        <ele>700.4</ele>
        <time>2024-10-13T10:24:56Z</time>
      </trkpt>
      <trkpt lat="47.80324" lon="7.06606">
        <ele>700.8</ele>
        <time>2024-10-13T10:25:06Z</time>
      </trkpt>
      <trkpt lat="47.8032" lon="7.06594">
        <ele>701.1</ele>
        <time>2024-10-13T10:25:15Z</time>
      </trkpt>
      <trkpt lat="47.80317" lon="7.06581">
        <ele>701.4</ele>
        <time>2024-10-13T10:25:25Z</time>
      </trkpt>
      <trkpt lat="47.80316" lon="7.06567">
        <ele>701.6</ele>
        <time>2024-10-13T10:25:34Z</time>
      </trkpt>
      <trkpt lat="47.80318" lon="7.06553">
        <ele>701.8</ele>
        <time>2024-10-13T10:25:43Z</time>
      </trkpt>
      <trkpt lat="47.80318" lon="7.06538">
        <ele>702.1</ele>
        <time>2024-10-13T10:25:52Z</time>
      </trkpt>
      <trkpt lat="47.8032" lon="7.06524">
        <ele>702.3</ele>
        <time>2024-10-13T10:26:01Z</time>
      </trkpt>
      <trkpt lat="47.80323" lon="7.06511">
        <ele>702.7</ele>
        <time>2024-10-13T10:26:09Z</time>
      </trkpt>
      <trkpt lat="47.80327" lon="7.06498">
        <ele>702.9</ele>
        <time>2024-10-13T10:26:18Z</time>
      </trkpt>
      <trkpt lat="47.80328" lon="7.06485">
        <ele>703.1</ele>
        <time>2024-10-13T10:26:28Z</time>
      </trkpt>
      <trkpt lat="47.80333" lon="7.06473">
        <ele>703.1</ele>
        <time>2024-10-13T10:26:35Z</time>
      </trkpt>
      <trkpt lat="47.80335" lon="7.06458">
        <ele>702.9</ele>
        <time>2024-10-13T10:26:44Z</time>
      </trkpt>
      <trkpt lat="47.80338" lon="7.06444">
        <ele>702.7</ele>
        <time>2024-10-13T10:26:51Z</time>
      </trkpt>
      <trkpt lat="47.80341" lon="7.0643">
        <ele>702.4</ele>
        <time>2024-10-13T10:27:01Z</time>
      </trkpt>
      <trkpt lat="47.80344" lon="7.06417">
        <ele>702.2</ele>
        <time>2024-10-13T10:27:08Z</time>
      </trkpt>
      <trkpt lat="47.8035" lon="7.06405">
        <ele>702.2</ele>
        <time>2024-10-13T10:27:15Z</time>
      </trkpt>
      <trkpt lat="47.80356" lon="7.06393">
        <ele>702.3</ele>
        <time>2024-10-13T10:27:24Z</time>
      </trkpt>
      <trkpt lat="47.80361" lon="7.06381">
        <ele>702.5</ele>
        <time>2024-10-13T10:27:34Z</time>
      </trkpt>
      <trkpt lat="47.80366" lon="7.0637">
        <ele>702.8</ele>
        <time>2024-10-13T10:27:43Z</time>
      </trkpt>
      <trkpt lat="47.80371" lon="7.06357">
        <ele>703.1</ele>
        <time>2024-10-13T10:27:51Z</time>
      </trkpt>
      <trkpt lat="47.80374" lon="7.06343">
        <ele>703.4</ele>
        <time>2024-10-13T10:27:59Z</time>
      </trkpt>
      <trkpt lat="47.80377" lon="7.0633">
        <ele>703.7</ele>
        <time>2024-10-13T10:28:07Z</time>
      </trkpt>
      <trkpt lat="47.80377" lon="7.06316">
        <ele>704</ele>
        <time>2024-10-13T10:28:14Z</time>
      </trkpt>
      <trkpt lat="47.80376" lon="7.06302">
        <ele>704.3</ele>
        <time>2024-10-13T10:28:22Z</time>
      </trkpt>
      <trkpt lat="47.80376" lon="7.06286">
        <ele>704.4</ele>
        <time>2024-10-13T10:28:31Z</time>
      </trkpt>
      <trkpt lat="47.80378" lon="7.06272">
        <ele>704.5</ele>
        <time>2024-10-13T10:28:39Z</time>
      </trkpt>
      <trkpt lat="47.80381" lon="7.06258">
        <ele>704.6</ele>
        <time>2024-10-13T10:28:47Z</time>
      </trkpt>
      <trkpt lat="47.80382" lon="7.06244">
        <ele>704.9</ele>
        <time>2024-10-13T10:28:55Z</time>
      </trkpt>
      <trkpt lat="47.80379" lon="7.06236">
        <ele>705.2</ele>
        <time>2024-10-13T10:29:05Z</time>
      </trkpt>
      <trkpt lat="47.80379" lon="7.06236">
        <ele>705.2</ele>
        <time>2024-10-13T10:29:06Z</time>
      </trkpt>
      <trkpt lat="47.8038" lon="7.06235">
        <ele>705.2</ele>
        <time>2024-10-13T10:29:07Z</time>
      </trkpt>
      <trkpt lat="47.80381" lon="7.06235">
        <ele>705.3</ele>
        <time>2024-10-13T10:29:08Z</time>
      </trkpt>
      <trkpt lat="47.80382" lon="7.06234">
        <ele>705.3</ele>
        <time>2024-10-13T10:29:09Z</time>
      </trkpt>
      <trkpt lat="47.80382" lon="7.06234">
        <ele>705.3</ele>
        <time>2024-10-13T10:29:10Z</time>
      </trkpt>
      <trkpt lat="47.80381" lon="7.06234">
        <ele>705.3</ele>
        <time>2024-10-13T10:29:11Z</time>
      </trkpt>
      <trkpt lat="47.80382" lon="7.06235">
        <ele>705.4</ele>
        <time>2024-10-13T10:29:12Z</time>
      </trkpt>
      <trkpt lat="47.8038" lon="7.06234">
        <ele>705.5</ele>
        <time>2024-10-13T10:29:18Z</time>
      </trkpt>
      <trkpt lat="47.80379" lon="7.06233">
        <ele>705.6</ele>
        <time>2024-10-13T10:29:19Z</time>
      </trkpt>
      <trkpt lat="47.80375" lon="7.0622">
        <ele>706.3</ele>
        <time>2024-10-13T10:29:26Z</time>
      </trkpt>
      <trkpt lat="47.80375" lon="7.06205">
        <ele>707.1</ele>
        <time>2024-10-13T10:29:35Z</time>
      </trkpt>
      <trkpt lat="47.80375" lon="7.0619">
        <ele>707.9</ele>
        <time>2024-10-13T10:29:43Z</time>
      </trkpt>
      <trkpt lat="47.80375" lon="7.06176">
        <ele>708.6</ele>
        <time>2024-10-13T10:29:52Z</time>
      </trkpt>
      <trkpt lat="47.80374" lon="7.06162">
        <ele>709.3</ele>
        <time>2024-10-13T10:30:02Z</time>
      </trkpt>
      <trkpt lat="47.80376" lon="7.06149">
        <ele>710</ele>
        <time>2024-10-13T10:30:11Z</time>
      </trkpt>
      <trkpt lat="47.8038" lon="7.06135">
        <ele>710.8</ele>
        <time>2024-10-13T10:30:21Z</time>
      </trkpt>
      <trkpt lat="47.80383" lon="7.06121">
        <ele>711.6</ele>
        <time>2024-10-13T10:30:30Z</time>
      </trkpt>
      <trkpt lat="47.80382" lon="7.06107">
        <ele>712.5</ele>
        <time>2024-10-13T10:30:39Z</time>
      </trkpt>
      <trkpt lat="47.80376" lon="7.06096">
        <ele>712.9</ele>
        <time>2024-10-13T10:30:48Z</time>
      </trkpt>
      <trkpt lat="47.80372" lon="7.06083">
        <ele>713</ele>
        <time>2024-10-13T10:30:58Z</time>
      </trkpt>
      <trkpt lat="47.80371" lon="7.0608">
        <ele>713.1</ele>
        <time>2024-10-13T10:31:07Z</time>
      </trkpt>
      <trkpt lat="47.80371" lon="7.0608">
        <ele>713.1</ele>
        <time>2024-10-13T10:31:08Z</time>
      </trkpt>
      <trkpt lat="47.80371" lon="7.0608">
        <ele>713.1</ele>
        <time>2024-10-13T10:31:09Z</time>
      </trkpt>
      <trkpt lat="47.80372" lon="7.06079">
        <ele>713.1</ele>
        <time>2024-10-13T10:31:28Z</time>
      </trkpt>
      <trkpt lat="47.80371" lon="7.06078">
        <ele>713.1</ele>
        <time>2024-10-13T10:31:29Z</time>
      </trkpt>
      <trkpt lat="47.80373" lon="7.06063">
        <ele>713.2</ele>
        <time>2024-10-13T10:31:42Z</time>
      </trkpt>
      <trkpt lat="47.80373" lon="7.06049">
        <ele>713</ele>
        <time>2024-10-13T10:31:52Z</time>
      </trkpt>
      <trkpt lat="47.80371" lon="7.06035">
        <ele>712.6</ele>
        <time>2024-10-13T10:32:00Z</time>
      </trkpt>
      <trkpt lat="47.80376" lon="7.06022">
        <ele>712</ele>
        <time>2024-10-13T10:32:07Z</time>
      </trkpt>
      <trkpt lat="47.80374" lon="7.06009">
        <ele>711.4</ele>
        <time>2024-10-13T10:32:14Z</time>
      </trkpt>
      <trkpt lat="47.8037" lon="7.05996">
        <ele>710.6</ele>
        <time>2024-10-13T10:32:23Z</time>
      </trkpt>
      <trkpt lat="47.80367" lon="7.05983">
        <ele>709.8</ele>
        <time>2024-10-13T10:32:33Z</time>
      </trkpt>
      <trkpt lat="47.80369" lon="7.05969">
        <ele>709</ele>
        <time>2024-10-13T10:32:42Z</time>
      </trkpt>
      <trkpt lat="47.80376" lon="7.05959">
        <ele>708.1</ele>
        <time>2024-10-13T10:32:49Z</time>
      </trkpt>
      <trkpt lat="47.80381" lon="7.05948">
        <ele>707.1</ele>
        <time>2024-10-13T10:32:57Z</time>
      </trkpt>
      <trkpt lat="47.80386" lon="7.05936">
        <ele>706.1</ele>
        <time>2024-10-13T10:33:05Z</time>
      </trkpt>
      <trkpt lat="47.80389" lon="7.05922">
        <ele>704.8</ele>
        <time>2024-10-13T10:33:13Z</time>
      </trkpt>
      <trkpt lat="47.80396" lon="7.05912">
        <ele>703.6</ele>
        <time>2024-10-13T10:33:23Z</time>
      </trkpt>
      <trkpt lat="47.80405" lon="7.05907">
        <ele>702.7</ele>
        <time>2024-10-13T10:33:34Z</time>
      </trkpt>
      <trkpt lat="47.80412" lon="7.05899">
        <ele>701.9</ele>
        <time>2024-10-13T10:33:42Z</time>
      </trkpt>
      <trkpt lat="47.80421" lon="7.05892">
        <ele>701.2</ele>
        <time>2024-10-13T10:33:51Z</time>
      </trkpt>
      <trkpt lat="47.80429" lon="7.05885">
        <ele>700.4</ele>
        <time>2024-10-13T10:34:04Z</time>
      </trkpt>
      <trkpt lat="47.80439" lon="7.05882">
        <ele>699.5</ele>
        <time>2024-10-13T10:34:18Z</time>
      </trkpt>
      <trkpt lat="47.80447" lon="7.05876">
        <ele>698.1</ele>
        <time>2024-10-13T10:34:24Z</time>
      </trkpt>
      <trkpt lat="47.80456" lon="7.05868">
        <ele>696.4</ele>
        <time>2024-10-13T10:34:32Z</time>
      </trkpt>
      <trkpt lat="47.80462" lon="7.05857">
        <ele>694.9</ele>
        <time>2024-10-13T10:34:43Z</time>
      </trkpt>
      <trkpt lat="47.80464" lon="7.05841">
        <ele>694.2</ele>
        <time>2024-10-13T10:34:50Z</time>
      </trkpt>
      <trkpt lat="47.80462" lon="7.05827">
        <ele>693.8</ele>
        <time>2024-10-13T10:34:58Z</time>
      </trkpt>
      <trkpt lat="47.80458" lon="7.05815">
        <ele>693.9</ele>
        <time>2024-10-13T10:35:05Z</time>
      </trkpt>
      <trkpt lat="47.80456" lon="7.05801">
        <ele>694.4</ele>
        <time>2024-10-13T10:35:14Z</time>
      </trkpt>
      <trkpt lat="47.80452" lon="7.05788">
        <ele>695.3</ele>
        <time>2024-10-13T10:35:23Z</time>
      </trkpt>
      <trkpt lat="47.8045" lon="7.05774">
        <ele>696.5</ele>
        <time>2024-10-13T10:35:31Z</time>
      </trkpt>
      <trkpt lat="47.80448" lon="7.0576">
        <ele>698.4</ele>
        <time>2024-10-13T10:35:43Z</time>
      </trkpt>
      <trkpt lat="47.80441" lon="7.0575">
        <ele>700.5</ele>
        <time>2024-10-13T10:35:51Z</time>
      </trkpt>
      <trkpt lat="47.80439" lon="7.05737">
        <ele>702.6</ele>
        <time>2024-10-13T10:36:00Z</time>
      </trkpt>
      <trkpt lat="47.80436" lon="7.05723">
        <ele>704.7</ele>
        <time>2024-10-13T10:36:12Z</time>
      </trkpt>
      <trkpt lat="47.80431" lon="7.05712">
        <ele>706.5</ele>
        <time>2024-10-13T10:36:27Z</time>
      </trkpt>
      <trkpt lat="47.80433" lon="7.05699">
        <ele>707.9</ele>
        <time>2024-10-13T10:36:37Z</time>
      </trkpt>
      <trkpt lat="47.80431" lon="7.05685">
        <ele>708.9</ele>
        <time>2024-10-13T10:36:47Z</time>
      </trkpt>
      <trkpt lat="47.80431" lon="7.05671">
        <ele>709.7</ele>
        <time>2024-10-13T10:36:59Z</time>
      </trkpt>
      <trkpt lat="47.80436" lon="7.05659">
        <ele>710.3</ele>
        <time>2024-10-13T10:37:05Z</time>
      </trkpt>
      <trkpt lat="47.80438" lon="7.05645">
        <ele>711</ele>
        <time>2024-10-13T10:37:14Z</time>
      </trkpt>
      <trkpt lat="47.80441" lon="7.05631">
        <ele>711.4</ele>
        <time>2024-10-13T10:37:24Z</time>
      </trkpt>
      <trkpt lat="47.8044" lon="7.05617">
        <ele>711.4</ele>
        <time>2024-10-13T10:37:33Z</time>
      </trkpt>
      <trkpt lat="47.80441" lon="7.05603">
        <ele>711.1</ele>
        <time>2024-10-13T10:37:42Z</time>
      </trkpt>
      <trkpt lat="47.80442" lon="7.05589">
        <ele>711</ele>
        <time>2024-10-13T10:37:54Z</time>
      </trkpt>
      <trkpt lat="47.80445" lon="7.05575">
        <ele>711.2</ele>
        <time>2024-10-13T10:38:05Z</time>
      </trkpt>
      <trkpt lat="47.80444" lon="7.05562">
        <ele>711.7</ele>
        <time>2024-10-13T10:38:18Z</time>
      </trkpt>
      <trkpt lat="47.80445" lon="7.05562">
        <ele>711.7</ele>
        <time>2024-10-13T10:38:19Z</time>
      </trkpt>
      <trkpt lat="47.80444" lon="7.05561">
        <ele>711.7</ele>
        <time>2024-10-13T10:38:25Z</time>
      </trkpt>
      <trkpt lat="47.80444" lon="7.05561">
        <ele>711.8</ele>
        <time>2024-10-13T10:38:26Z</time>
      </trkpt>
      <trkpt lat="47.80443" lon="7.05547">
        <ele>712.3</ele>
        <time>2024-10-13T10:38:39Z</time>
      </trkpt>
      <trkpt lat="47.80441" lon="7.05533">
        <ele>713.1</ele>
        <time>2024-10-13T10:38:46Z</time>
      </trkpt>
      <trkpt lat="47.8044" lon="7.0552">
        <ele>714.3</ele>
        <time>2024-10-13T10:38:54Z</time>
      </trkpt>
      <trkpt lat="47.80434" lon="7.05509">
        <ele>716.1</ele>
        <time>2024-10-13T10:39:01Z</time>
      </trkpt>
      <trkpt lat="47.80431" lon="7.05496">
        <ele>718.5</ele>
        <time>2024-10-13T10:39:12Z</time>
      </trkpt>
      <trkpt lat="47.80422" lon="7.0549">
        <ele>720.8</ele>
        <time>2024-10-13T10:39:26Z</time>
      </trkpt>
      <trkpt lat="47.80412" lon="7.0549">
        <ele>722.7</ele>
        <time>2024-10-13T10:39:34Z</time>
      </trkpt>
      <trkpt lat="47.80403" lon="7.05494">
        <ele>723.9</ele>
        <time>2024-10-13T10:39:44Z</time>
      </trkpt>
      <trkpt lat="47.80394" lon="7.05493">
        <ele>725</ele>
        <time>2024-10-13T10:39:52Z</time>
      </trkpt>
      <trkpt lat="47.80386" lon="7.05483">
        <ele>726.2</ele>
        <time>2024-10-13T10:40:01Z</time>
      </trkpt>
      <trkpt lat="47.80378" lon="7.05477">
        <ele>727.3</ele>
        <time>2024-10-13T10:40:18Z</time>
      </trkpt>
      <trkpt lat="47.80375" lon="7.05474">
        <ele>727.7</ele>
        <time>2024-10-13T10:40:26Z</time>
      </trkpt>
      <trkpt lat="47.80374" lon="7.05474">
        <ele>727.7</ele>
        <time>2024-10-13T10:40:27Z</time>
      </trkpt>
      <trkpt lat="47.80374" lon="7.05474">
        <ele>727.7</ele>
        <time>2024-10-13T10:40:28Z</time>
      </trkpt>
      <trkpt lat="47.80374" lon="7.05474">
        <ele>727.7</ele>
        <time>2024-10-13T10:40:29Z</time>
      </trkpt>
      <trkpt lat="47.80365" lon="7.05472">
        <ele>728.5</ele>
        <time>2024-10-13T10:40:39Z</time>
      </trkpt>
      <trkpt lat="47.80356" lon="7.05467">
        <ele>729.3</ele>
        <time>2024-10-13T10:40:46Z</time>
      </trkpt>
      <trkpt lat="47.80347" lon="7.05461">
        <ele>730.4</ele>
        <time>2024-10-13T10:40:54Z</time>
      </trkpt>
      <trkpt lat="47.80338" lon="7.05458">
        <ele>731.7</ele>
        <time>2024-10-13T10:41:05Z</time>
      </trkpt>
      <trkpt lat="47.80328" lon="7.05461">
        <ele>733.4</ele>
        <time>2024-10-13T10:41:12Z</time>
      </trkpt>
      <trkpt lat="47.80318" lon="7.05461">
        <ele>735.2</ele>
        <time>2024-10-13T10:41:25Z</time>
      </trkpt>
      <trkpt lat="47.80309" lon="7.05462">
        <ele>737</ele>
        <time>2024-10-13T10:41:37Z</time>
      </trkpt>
      <trkpt lat="47.80303" lon="7.05451">
        <ele>738.7</ele>
        <time>2024-10-13T10:41:54Z</time>
      </trkpt>
      <trkpt lat="47.80296" lon="7.05441">
        <ele>740.1</ele>
        <time>2024-10-13T10:42:08Z</time>
      </trkpt>
      <trkpt lat="47.80289" lon="7.05431">
        <ele>740.9</ele>
        <time>2024-10-13T10:42:17Z</time>
      </trkpt>
      <trkpt lat="47.80282" lon="7.05422">
        <ele>741.3</ele>
        <time>2024-10-13T10:42:24Z</time>
      </trkpt>
      <trkpt lat="47.80275" lon="7.05412">
        <ele>741.6</ele>
        <time>2024-10-13T10:42:32Z</time>
      </trkpt>
      <trkpt lat="47.80269" lon="7.05402">
        <ele>742</ele>
        <time>2024-10-13T10:42:39Z</time>
      </trkpt>
      <trkpt lat="47.80262" lon="7.05392">
        <ele>742.5</ele>
        <time>2024-10-13T10:42:48Z</time>
      </trkpt>
      <trkpt lat="47.80253" lon="7.05384">
        <ele>743.1</ele>
        <time>2024-10-13T10:42:56Z</time>
      </trkpt>
      <trkpt lat="47.80249" lon="7.05373">
        <ele>743.4</ele>
        <time>2024-10-13T10:43:04Z</time>
      </trkpt>
      <trkpt lat="47.80246" lon="7.0536">
        <ele>743.7</ele>
        <time>2024-10-13T10:43:10Z</time>
      </trkpt>
      <trkpt lat="47.80243" lon="7.05345">
        <ele>743.7</ele>
        <time>2024-10-13T10:43:19Z</time>
      </trkpt>
      <trkpt lat="47.80236" lon="7.05336">
        <ele>743.6</ele>
        <time>2024-10-13T10:43:26Z</time>
      </trkpt>
      <trkpt lat="47.80231" lon="7.05324">
        <ele>743.5</ele>
        <time>2024-10-13T10:43:34Z</time>
      </trkpt>
      <trkpt lat="47.80227" lon="7.05315">
        <ele>743.3</ele>
        <time>2024-10-13T10:43:45Z</time>
      </trkpt>
      <trkpt lat="47.80227" lon="7.05315">
        <ele>743.3</ele>
        <time>2024-10-13T10:43:46Z</time>
      </trkpt>
      <trkpt lat="47.80227" lon="7.05315">
        <ele>743.3</ele>
        <time>2024-10-13T10:43:47Z</time>
      </trkpt>
      <trkpt lat="47.80226" lon="7.05313">
        <ele>743</ele>
        <time>2024-10-13T10:44:15Z</time>
      </trkpt>
      <trkpt lat="47.80225" lon="7.05312">
        <ele>742.8</ele>
        <time>2024-10-13T10:44:16Z</time>
      </trkpt>
      <trkpt lat="47.80224" lon="7.05311">
        <ele>742.5</ele>
        <time>2024-10-13T10:44:22Z</time>
      </trkpt>
      <trkpt lat="47.80224" lon="7.05311">
        <ele>742.5</ele>
        <time>2024-10-13T10:44:23Z</time>
      </trkpt>
      <trkpt lat="47.80224" lon="7.05311">
        <ele>742.5</ele>
        <time>2024-10-13T10:44:24Z</time>
      </trkpt>
      <trkpt lat="47.80223" lon="7.0531">
        <ele>742.3</ele>
        <time>2024-10-13T10:44:32Z</time>
      </trkpt>
      <trkpt lat="47.80222" lon="7.05309">
        <ele>742.1</ele>
        <time>2024-10-13T10:44:33Z</time>
      </trkpt>
      <trkpt lat="47.80221" lon="7.05309">
        <ele>742</ele>
        <time>2024-10-13T10:44:34Z</time>
      </trkpt>
      <trkpt lat="47.80221" lon="7.05309">
        <ele>741.9</ele>
        <time>2024-10-13T10:44:37Z</time>
      </trkpt>
      <trkpt lat="47.80221" lon="7.05309">
        <ele>741.9</ele>
        <time>2024-10-13T10:44:38Z</time>
      </trkpt>
      <trkpt lat="47.80221" lon="7.05309">
        <ele>741.9</ele>
        <time>2024-10-13T10:44:39Z</time>
      </trkpt>
      <trkpt lat="47.8022" lon="7.05308">
        <ele>741.7</ele>
        <time>2024-10-13T10:44:52Z</time>
      </trkpt>
      <trkpt lat="47.8022" lon="7.05307">
        <ele>741.5</ele>
        <time>2024-10-13T10:44:53Z</time>
      </trkpt>
      <trkpt lat="47.80219" lon="7.05307">
        <ele>741.5</ele>
        <time>2024-10-13T10:44:54Z</time>
      </trkpt>
      <trkpt lat="47.8021" lon="7.05303">
        <ele>741.7</ele>
        <time>2024-10-13T10:45:03Z</time>
      </trkpt>
      <trkpt lat="47.80203" lon="7.05294">
        <ele>741.9</ele>
        <time>2024-10-13T10:45:11Z</time>
      </trkpt>
      <trkpt lat="47.80196" lon="7.05284">
        <ele>742</ele>
        <time>2024-10-13T10:45:19Z</time>
      </trkpt>
      <trkpt lat="47.80188" lon="7.05276">
        <ele>742.1</ele>
        <time>2024-10-13T10:45:27Z</time>
      </trkpt>
      <trkpt lat="47.8018" lon="7.05268">
        <ele>742.1</ele>
        <time>2024-10-13T10:45:35Z</time>
      </trkpt>
      <trkpt lat="47.8017" lon="7.05264">
        <ele>742.1</ele>
        <time>2024-10-13T10:45:45Z</time>
      </trkpt>
      <trkpt lat="47.80161" lon="7.05259">
        <ele>741.9</ele>
        <time>2024-10-13T10:45:52Z</time>
      </trkpt>
      <trkpt lat="47.80152" lon="7.05258">
        <ele>741.8</ele>
        <time>2024-10-13T10:46:00Z</time>
      </trkpt>
      <trkpt lat="47.80143" lon="7.05257">
        <ele>741.7</ele>
        <time>2024-10-13T10:46:07Z</time>
      </trkpt>
      <trkpt lat="47.80134" lon="7.05254">
        <ele>741.6</ele>
        <time>2024-10-13T10:46:14Z</time>
      </trkpt>
      <trkpt lat="47.80124" lon="7.05253">
        <ele>741.6</ele>
        <time>2024-10-13T10:46:22Z</time>
      </trkpt>
      <trkpt lat="47.80114" lon="7.05251">
        <ele>741.7</ele>
        <time>2024-10-13T10:46:30Z</time>
      </trkpt>
      <trkpt lat="47.80104" lon="7.0525">
        <ele>741.8</ele>
        <time>2024-10-13T10:46:38Z</time>
      </trkpt>
      <trkpt lat="47.80095" lon="7.05249">
        <ele>741.9</ele>
        <time>2024-10-13T10:46:45Z</time>
      </trkpt>
      <trkpt lat="47.80087" lon="7.05256">
        <ele>742</ele>
        <time>2024-10-13T10:46:54Z</time>
      </trkpt>
      <trkpt lat="47.80078" lon="7.05259">
        <ele>742.1</ele>
        <time>2024-10-13T10:47:02Z</time>
      </trkpt>
      <trkpt lat="47.80069" lon="7.05265">
        <ele>742.1</ele>
        <time>2024-10-13T10:47:12Z</time>
      </trkpt>
      <trkpt lat="47.8006" lon="7.05272">
        <ele>742</ele>
        <time>2024-10-13T10:47:20Z</time>
      </trkpt>
      <trkpt lat="47.80053" lon="7.05281">
        <ele>741.6</ele>
        <time>2024-10-13T10:47:28Z</time>
      </trkpt>
      <trkpt lat="47.80045" lon="7.05287">
        <ele>741</ele>
        <time>2024-10-13T10:47:37Z</time>
      </trkpt>
      <trkpt lat="47.80037" lon="7.05292">
        <ele>740.2</ele>
        <time>2024-10-13T10:47:45Z</time>
      </trkpt>
      <trkpt lat="47.80028" lon="7.05299">
        <ele>739</ele>
        <time>2024-10-13T10:47:54Z</time>
      </trkpt>
      <trkpt lat="47.80021" lon="7.05307">
        <ele>737.8</ele>
        <time>2024-10-13T10:48:03Z</time>
      </trkpt>
      <trkpt lat="47.80014" lon="7.05318">
        <ele>736.5</ele>
        <time>2024-10-13T10:48:12Z</time>
      </trkpt>
      <trkpt lat="47.80009" lon="7.05329">
        <ele>735.4</ele>
        <time>2024-10-13T10:48:20Z</time>
      </trkpt>
      <trkpt lat="47.80002" lon="7.0534">
        <ele>734.2</ele>
        <time>2024-10-13T10:48:30Z</time>
      </trkpt>
      <trkpt lat="47.79996" lon="7.05351">
        <ele>733.1</ele>
        <time>2024-10-13T10:48:38Z</time>
      </trkpt>
      <trkpt lat="47.7999" lon="7.05364">
        <ele>732</ele>
        <time>2024-10-13T10:48:47Z</time>
      </trkpt>
      <trkpt lat="47.79983" lon="7.05373">
        <ele>730.8</ele>
        <time>2024-10-13T10:49:00Z</time>
      </trkpt>
      <trkpt lat="47.79977" lon="7.05384">
        <ele>729.6</ele>
        <time>2024-10-13T10:49:08Z</time>
      </trkpt>
      <trkpt lat="47.79971" lon="7.05394">
        <ele>728.2</ele>
        <time>2024-10-13T10:49:16Z</time>
      </trkpt>
      <trkpt lat="47.79965" lon="7.05405">
        <ele>726.9</ele>
        <time>2024-10-13T10:49:25Z</time>
      </trkpt>
      <trkpt lat="47.79958" lon="7.05416">
        <ele>725.7</ele>
        <time>2024-10-13T10:49:33Z</time>
      </trkpt>
      <trkpt lat="47.79952" lon="7.05426">
        <ele>724.7</ele>
        <time>2024-10-13T10:49:42Z</time>
      </trkpt>
      <trkpt lat="47.79945" lon="7.05436">
        <ele>724</ele>
        <time>2024-10-13T10:49:50Z</time>
      </trkpt>
      <trkpt lat="47.79937" lon="7.05442">
        <ele>723.4</ele>
        <time>2024-10-13T10:49:59Z</time>
      </trkpt>
      <trkpt lat="47.79928" lon="7.05446">
        <ele>723</ele>
        <time>2024-10-13T10:50:07Z</time>
      </trkpt>
      <trkpt lat="47.79918" lon="7.05448">
        <ele>722.7</ele>
        <time>2024-10-13T10:50:16Z</time>
      </trkpt>
      <trkpt lat="47.79909" lon="7.0545">
        <ele>722.5</ele>
        <time>2024-10-13T10:50:24Z</time>
      </trkpt>
      <trkpt lat="47.799" lon="7.05452">
        <ele>722.2</ele>
        <time>2024-10-13T10:50:34Z</time>
      </trkpt>
      <trkpt lat="47.79891" lon="7.05457">
        <ele>721.8</ele>
        <time>2024-10-13T10:50:43Z</time>
      </trkpt>
      <trkpt lat="47.79882" lon="7.05462">
        <ele>721.4</ele>
        <time>2024-10-13T10:50:51Z</time>
      </trkpt>
      <trkpt lat="47.79874" lon="7.05469">
        <ele>721</ele>
        <time>2024-10-13T10:51:00Z</time>
      </trkpt>
      <trkpt lat="47.79866" lon="7.05476">
        <ele>720.4</ele>
        <time>2024-10-13T10:51:09Z</time>
      </trkpt>
      <trkpt lat="47.79857" lon="7.05482">
        <ele>719.8</ele>
        <time>2024-10-13T10:51:17Z</time>
      </trkpt>
      <trkpt lat="47.7985" lon="7.05491">
        <ele>719</ele>
        <time>2024-10-13T10:51:28Z</time>
      </trkpt>
      <trkpt lat="47.79842" lon="7.05499">
        <ele>718.1</ele>
        <time>2024-10-13T10:51:37Z</time>
      </trkpt>
      <trkpt lat="47.79835" lon="7.05508">
        <ele>717.1</ele>
        <time>2024-10-13T10:51:46Z</time>
      </trkpt>
      <trkpt lat="47.79827" lon="7.05517">
        <ele>716</ele>
        <time>2024-10-13T10:51:55Z</time>
      </trkpt>
      <trkpt lat="47.7982" lon="7.05525">
        <ele>714.7</ele>
        <time>2024-10-13T10:52:05Z</time>
      </trkpt>
      <trkpt lat="47.79812" lon="7.05534">
        <ele>713.5</ele>
        <time>2024-10-13T10:52:15Z</time>
      </trkpt>
      <trkpt lat="47.79805" lon="7.05542">
        <ele>712.3</ele>
        <time>2024-10-13T10:52:27Z</time>
      </trkpt>
      <trkpt lat="47.79797" lon="7.05551">
        <ele>711</ele>
        <time>2024-10-13T10:52:35Z</time>
      </trkpt>
      <trkpt lat="47.79789" lon="7.05559">
        <ele>709.7</ele>
        <time>2024-10-13T10:52:44Z</time>
      </trkpt>
      <trkpt lat="47.79781" lon="7.05555">
        <ele>708.5</ele>
        <time>2024-10-13T10:53:00Z</time>
      </trkpt>
      <trkpt lat="47.7978" lon="7.05553">
        <ele>708.3</ele>
        <time>2024-10-13T10:53:07Z</time>
      </trkpt>
      <trkpt lat="47.7978" lon="7.05553">
        <ele>708.3</ele>
        <time>2024-10-13T10:53:08Z</time>
      </trkpt>
      <trkpt lat="47.7978" lon="7.05553">
        <ele>708.3</ele>
        <time>2024-10-13T10:53:09Z</time>
      </trkpt>
      <trkpt lat="47.7978" lon="7.05554">
        <ele>708.3</ele>
        <time>2024-10-13T10:53:12Z</time>
      </trkpt>
      <trkpt lat="47.7978" lon="7.05554">
        <ele>708.3</ele>
        <time>2024-10-13T10:53:13Z</time>
      </trkpt>
      <trkpt lat="47.7978" lon="7.05554">
        <ele>708.3</ele>
        <time>2024-10-13T10:53:14Z</time>
      </trkpt>
      <trkpt lat="47.79781" lon="7.05554">
        <ele>708.3</ele>
        <time>2024-10-13T10:53:20Z</time>
      </trkpt>
      <trkpt lat="47.79781" lon="7.05555">
        <ele>708.3</ele>
        <time>2024-10-13T10:53:37Z</time>
      </trkpt>
      <trkpt lat="47.7978" lon="7.05555">
        <ele>708.3</ele>
        <time>2024-10-13T10:53:38Z</time>
      </trkpt>
      <trkpt lat="47.7978" lon="7.05555">
        <ele>708.3</ele>
        <time>2024-10-13T10:53:45Z</time>
      </trkpt>
      <trkpt lat="47.7978" lon="7.05555">
        <ele>708.3</ele>
        <time>2024-10-13T10:53:46Z</time>
      </trkpt>
      <trkpt lat="47.7978" lon="7.05555">
        <ele>708.3</ele>
        <time>2024-10-13T10:53:47Z</time>
      </trkpt>
      <trkpt lat="47.7978" lon="7.05555">
        <ele>708.3</ele>
        <time>2024-10-13T10:53:48Z</time>
      </trkpt>
      <trkpt lat="47.79779" lon="7.05557">
        <ele>708.3</ele>
        <time>2024-10-13T11:23:00Z</time>
      </trkpt>
      <trkpt lat="47.7978" lon="7.05558">
        <ele>708.3</ele>
        <time>2024-10-13T11:23:11Z</time>
      </trkpt>
      <trkpt lat="47.7978" lon="7.05559">
        <ele>708.3</ele>
        <time>2024-10-13T11:23:12Z</time>
      </trkpt>
      <trkpt lat="47.7978" lon="7.05559">
        <ele>708.3</ele>
        <time>2024-10-13T11:23:13Z</time>
      </trkpt>
      <trkpt lat="47.7978" lon="7.05559">
        <ele>708.3</ele>
        <time>2024-10-13T11:23:14Z</time>
      </trkpt>
      <trkpt lat="47.7978" lon="7.05559">
        <ele>708.3</ele>
        <time>2024-10-13T11:23:18Z</time>
      </trkpt>
      <trkpt lat="47.79781" lon="7.05559">
        <ele>708.3</ele>
        <time>2024-10-13T11:23:19Z</time>
      </trkpt>
      <trkpt lat="47.79781" lon="7.05559">
        <ele>708.3</ele>
        <time>2024-10-13T11:23:20Z</time>
      </trkpt>
      <trkpt lat="47.79781" lon="7.0556">
        <ele>708.3</ele>
        <time>2024-10-13T11:23:21Z</time>
      </trkpt>
      <trkpt lat="47.79779" lon="7.05574">
        <ele>707.6</ele>
        <time>2024-10-13T11:23:30Z</time>
      </trkpt>
      <trkpt lat="47.79776" lon="7.05586">
        <ele>705.9</ele>
        <time>2024-10-13T11:23:41Z</time>
      </trkpt>
      <trkpt lat="47.79769" lon="7.05597">
        <ele>704</ele>
        <time>2024-10-13T11:23:51Z</time>
      </trkpt>
      <trkpt lat="47.79762" lon="7.05606">
        <ele>702.3</ele>
        <time>2024-10-13T11:24:00Z</time>
      </trkpt>
      <trkpt lat="47.79755" lon="7.05615">
        <ele>700.5</ele>
        <time>2024-10-13T11:24:08Z</time>
      </trkpt>
      <trkpt lat="47.79749" lon="7.05625">
        <ele>698.8</ele>
        <time>2024-10-13T11:24:17Z</time>
      </trkpt>
      <trkpt lat="47.79741" lon="7.05634">
        <ele>697</ele>
        <time>2024-10-13T11:24:27Z</time>
      </trkpt>
      <trkpt lat="47.79734" lon="7.05644">
        <ele>695.3</ele>
        <time>2024-10-13T11:24:36Z</time>
      </trkpt>
      <trkpt lat="47.79727" lon="7.05654">
        <ele>693.6</ele>
        <time>2024-10-13T11:24:45Z</time>
      </trkpt>
      <trkpt lat="47.79721" lon="7.05665">
        <ele>692</ele>
        <time>2024-10-13T11:24:54Z</time>
      </trkpt>
      <trkpt lat="47.79715" lon="7.05677">
        <ele>690.4</ele>
        <time>2024-10-13T11:25:03Z</time>
      </trkpt>
      <trkpt lat="47.79711" lon="7.05689">
        <ele>688.9</ele>
        <time>2024-10-13T11:25:11Z</time>
      </trkpt>
      <trkpt lat="47.79705" lon="7.057">
        <ele>687.3</ele>
        <time>2024-10-13T11:25:20Z</time>
      </trkpt>
      <trkpt lat="47.79699" lon="7.05712">
        <ele>685.8</ele>
        <time>2024-10-13T11:25:29Z</time>
      </trkpt>
      <trkpt lat="47.79694" lon="7.05724">
        <ele>684.4</ele>
        <time>2024-10-13T11:25:38Z</time>
      </trkpt>
      <trkpt lat="47.79689" lon="7.05735">
        <ele>683.2</ele>
        <time>2024-10-13T11:25:47Z</time>
      </trkpt>
      <trkpt lat="47.79687" lon="7.05741">
        <ele>682.8</ele>
        <time>2024-10-13T11:25:55Z</time>
      </trkpt>
      <trkpt lat="47.79687" lon="7.05741">
        <ele>682.8</ele>
        <time>2024-10-13T11:25:56Z</time>
      </trkpt>
      <trkpt lat="47.79687" lon="7.05741">
        <ele>682.8</ele>
        <time>2024-10-13T11:25:57Z</time>
      </trkpt>
      <trkpt lat="47.79687" lon="7.05741">
        <ele>682.8</ele>
        <time>2024-10-13T11:26:12Z</time>
      </trkpt>
      <trkpt lat="47.79687" lon="7.05741">
        <ele>682.8</ele>
        <time>2024-10-13T11:26:13Z</time>
      </trkpt>
      <trkpt lat="47.79687" lon="7.05741">
        <ele>682.7</ele>
        <time>2024-10-13T11:26:14Z</time>
      </trkpt>
      <trkpt lat="47.79681" lon="7.05753">
        <ele>681.8</ele>
        <time>2024-10-13T11:26:23Z</time>
      </trkpt>
      <trkpt lat="47.79677" lon="7.05766">
        <ele>681</ele>
        <time>2024-10-13T11:26:31Z</time>
      </trkpt>
      <trkpt lat="47.79672" lon="7.05777">
        <ele>680.4</ele>
        <time>2024-10-13T11:26:39Z</time>
      </trkpt>
      <trkpt lat="47.79668" lon="7.0579">
        <ele>679.9</ele>
        <time>2024-10-13T11:26:47Z</time>
      </trkpt>
      <trkpt lat="47.79663" lon="7.05803">
        <ele>679.5</ele>
        <time>2024-10-13T11:26:55Z</time>
      </trkpt>
      <trkpt lat="47.7966" lon="7.05817">
        <ele>679.1</ele>
        <time>2024-10-13T11:27:03Z</time>
      </trkpt>
      <trkpt lat="47.79657" lon="7.05831">
        <ele>678.9</ele>
        <time>2024-10-13T11:27:11Z</time>
      </trkpt>
      <trkpt lat="47.79654" lon="7.05844">
        <ele>678.7</ele>
        <time>2024-10-13T11:27:19Z</time>
      </trkpt>
      <trkpt lat="47.7965" lon="7.05857">
        <ele>678.5</ele>
        <time>2024-10-13T11:27:27Z</time>
      </trkpt>
      <trkpt lat="47.79646" lon="7.0587">
        <ele>678.2</ele>
        <time>2024-10-13T11:27:35Z</time>
      </trkpt>
      <trkpt lat="47.7964" lon="7.05882">
        <ele>677.8</ele>
        <time>2024-10-13T11:27:43Z</time>
      </trkpt>
      <trkpt lat="47.79632" lon="7.0589">
        <ele>677.1</ele>
        <time>2024-10-13T11:27:51Z</time>
      </trkpt>
      <trkpt lat="47.79623" lon="7.05894">
        <ele>676.2</ele>
        <time>2024-10-13T11:27:59Z</time>
      </trkpt>
      <trkpt lat="47.79613" lon="7.05897">
        <ele>675.1</ele>
        <time>2024-10-13T11:28:07Z</time>
      </trkpt>
      <trkpt lat="47.79605" lon="7.05902">
        <ele>674</ele>
        <time>2024-10-13T11:28:15Z</time>
      </trkpt>
      <trkpt lat="47.79595" lon="7.05906">
        <ele>673</ele>
        <time>2024-10-13T11:28:23Z</time>
      </trkpt>
      <trkpt lat="47.79587" lon="7.05912">
        <ele>672.2</ele>
        <time>2024-10-13T11:28:32Z</time>
      </trkpt>
      <trkpt lat="47.79579" lon="7.0592">
        <ele>671.7</ele>
        <time>2024-10-13T11:28:40Z</time>
      </trkpt>
      <trkpt lat="47.79571" lon="7.05926">
        <ele>671.6</ele>
        <time>2024-10-13T11:28:49Z</time>
      </trkpt>
      <trkpt lat="47.79563" lon="7.05933">
        <ele>671.5</ele>
        <time>2024-10-13T11:28:57Z</time>
      </trkpt>
      <trkpt lat="47.79554" lon="7.05939">
        <ele>671.5</ele>
        <time>2024-10-13T11:29:04Z</time>
      </trkpt>
      <trkpt lat="47.79548" lon="7.0595">
        <ele>671.5</ele>
        <time>2024-10-13T11:29:12Z</time>
      </trkpt>
      <trkpt lat="47.79542" lon="7.05963">
        <ele>671.5</ele>
        <time>2024-10-13T11:29:20Z</time>
      </trkpt>
      <trkpt lat="47.79537" lon="7.05976">
        <ele>671.6</ele>
        <time>2024-10-13T11:29:28Z</time>
      </trkpt>
      <trkpt lat="47.79531" lon="7.05988">
        <ele>671.7</ele>
        <time>2024-10-13T11:29:36Z</time>
      </trkpt>
      <trkpt lat="47.79523" lon="7.05996">
        <ele>671.6</ele>
        <time>2024-10-13T11:29:44Z</time>
      </trkpt>
      <trkpt lat="47.79515" lon="7.06002">
        <ele>671.3</ele>
        <time>2024-10-13T11:29:52Z</time>
      </trkpt>
      <trkpt lat="47.79505" lon="7.06008">
        <ele>671.1</ele>
        <time>2024-10-13T11:30:00Z</time>
      </trkpt>
      <trkpt lat="47.79496" lon="7.06014">
        <ele>671.1</ele>
        <time>2024-10-13T11:30:08Z</time>
      </trkpt>
      <trkpt lat="47.79487" lon="7.0602">
        <ele>671.1</ele>
        <time>2024-10-13T11:30:15Z</time>
      </trkpt>
      <trkpt lat="47.79479" lon="7.06026">
        <ele>671.1</ele>
        <time>2024-10-13T11:30:22Z</time>
      </trkpt>
      <trkpt lat="47.79472" lon="7.06036">
        <ele>670.6</ele>
        <time>2024-10-13T11:30:30Z</time>
      </trkpt>
      <trkpt lat="47.79466" lon="7.06047">
        <ele>669.7</ele>
        <time>2024-10-13T11:30:38Z</time>
      </trkpt>
      <trkpt lat="47.79459" lon="7.06056">
        <ele>668.3</ele>
        <time>2024-10-13T11:30:46Z</time>
      </trkpt>
      <trkpt lat="47.79451" lon="7.06065">
        <ele>666.6</ele>
        <time>2024-10-13T11:30:55Z</time>
      </trkpt>
      <trkpt lat="47.79446" lon="7.06069">
        <ele>665.7</ele>
        <time>2024-10-13T11:31:10Z</time>
      </trkpt>
      <trkpt lat="47.79446" lon="7.06069">
        <ele>665.7</ele>
        <time>2024-10-13T11:31:11Z</time>
      </trkpt>
      <trkpt lat="47.79447" lon="7.06069">
        <ele>665.6</ele>
        <time>2024-10-13T11:31:12Z</time>
      </trkpt>
      <trkpt lat="47.79445" lon="7.06069">
        <ele>665.4</ele>
        <time>2024-10-13T11:32:08Z</time>
      </trkpt>
      <trkpt lat="47.79444" lon="7.06069">
        <ele>665.2</ele>
        <time>2024-10-13T11:32:09Z</time>
      </trkpt>
      <trkpt lat="47.79435" lon="7.06073">
        <ele>663.3</ele>
        <time>2024-10-13T11:32:20Z</time>
      </trkpt>
      <trkpt lat="47.79426" lon="7.06075">
        <ele>661.4</ele>
        <time>2024-10-13T11:32:29Z</time>
      </trkpt>
      <trkpt lat="47.79416" lon="7.06078">
        <ele>659.5</ele>
        <time>2024-10-13T11:32:38Z</time>
      </trkpt>
      <trkpt lat="47.79407" lon="7.06081">
        <ele>657.4</ele>
        <time>2024-10-13T11:32:46Z</time>
      </trkpt>
      <trkpt lat="47.79398" lon="7.06087">
        <ele>655.1</ele>
        <time>2024-10-13T11:32:55Z</time>
      </trkpt>
      <trkpt lat="47.79389" lon="7.06085">
        <ele>652.8</ele>
        <time>2024-10-13T11:33:04Z</time>
      </trkpt>
      <trkpt lat="47.7938" lon="7.06084">
        <ele>650.9</ele>
        <time>2024-10-13T11:33:13Z</time>
      </trkpt>
      <trkpt lat="47.7937" lon="7.06084">
        <ele>649.2</ele>
        <time>2024-10-13T11:33:21Z</time>
      </trkpt>
      <trkpt lat="47.79361" lon="7.06081">
        <ele>647.7</ele>
        <time>2024-10-13T11:33:29Z</time>
      </trkpt>
      <trkpt lat="47.79352" lon="7.06077">
        <ele>646</ele>
        <time>2024-10-13T11:33:38Z</time>
      </trkpt>
      <trkpt lat="47.79342" lon="7.06075">
        <ele>644.3</ele>
        <time>2024-10-13T11:33:47Z</time>
      </trkpt>
      <trkpt lat="47.79333" lon="7.06071">
        <ele>642.4</ele>
        <time>2024-10-13T11:33:55Z</time>
      </trkpt>
      <trkpt lat="47.79324" lon="7.06066">
        <ele>640.8</ele>
        <time>2024-10-13T11:34:04Z</time>
      </trkpt>
      <trkpt lat="47.79316" lon="7.06057">
        <ele>639.4</ele>
        <time>2024-10-13T11:34:15Z</time>
      </trkpt>
      <trkpt lat="47.7931" lon="7.06045">
        <ele>638.3</ele>
        <time>2024-10-13T11:34:24Z</time>
      </trkpt>
      <trkpt lat="47.79306" lon="7.06033">
        <ele>637.5</ele>
        <time>2024-10-13T11:34:32Z</time>
      </trkpt>
      <trkpt lat="47.79304" lon="7.06019">
        <ele>636.7</ele>
        <time>2024-10-13T11:34:44Z</time>
      </trkpt>
      <trkpt lat="47.79303" lon="7.06006">
        <ele>636</ele>
        <time>2024-10-13T11:34:52Z</time>
      </trkpt>
      <trkpt lat="47.79299" lon="7.05993">
        <ele>635.1</ele>
        <time>2024-10-13T11:35:02Z</time>
      </trkpt>
      <trkpt lat="47.79297" lon="7.05979">
        <ele>634.1</ele>
        <time>2024-10-13T11:35:13Z</time>
      </trkpt>
      <trkpt lat="47.79291" lon="7.05967">
        <ele>632.9</ele>
        <time>2024-10-13T11:35:24Z</time>
      </trkpt>
      <trkpt lat="47.79287" lon="7.05954">
        <ele>631.7</ele>
        <time>2024-10-13T11:35:34Z</time>
      </trkpt>
      <trkpt lat="47.79284" lon="7.0594">
        <ele>630.3</ele>
        <time>2024-10-13T11:35:48Z</time>
      </trkpt>
      <trkpt lat="47.7928" lon="7.05928">
        <ele>628.9</ele>
        <time>2024-10-13T11:35:56Z</time>
      </trkpt>
      <trkpt lat="47.79276" lon="7.05916">
        <ele>627.3</ele>
        <time>2024-10-13T11:36:04Z</time>
      </trkpt>
      <trkpt lat="47.79274" lon="7.05903">
        <ele>625.6</ele>
        <time>2024-10-13T11:36:13Z</time>
      </trkpt>
      <trkpt lat="47.7927" lon="7.0589">
        <ele>623.7</ele>
        <time>2024-10-13T11:36:22Z</time>
      </trkpt>
      <trkpt lat="47.79266" lon="7.05878">
        <ele>621.8</ele>
        <time>2024-10-13T11:36:31Z</time>
      </trkpt>
      <trkpt lat="47.79261" lon="7.05866">
        <ele>619.7</ele>
        <time>2024-10-13T11:36:42Z</time>
      </trkpt>
      <trkpt lat="47.79254" lon="7.05855">
        <ele>617.9</ele>
        <time>2024-10-13T11:36:51Z</time>
      </trkpt>
      <trkpt lat="47.79248" lon="7.05845">
        <ele>616.3</ele>
        <time>2024-10-13T11:36:59Z</time>
      </trkpt>
      <trkpt lat="47.79239" lon="7.05839">
        <ele>614.6</ele>
        <time>2024-10-13T11:37:07Z</time>
      </trkpt>
      <trkpt lat="47.79231" lon="7.05832">
        <ele>612.9</ele>
        <time>2024-10-13T11:37:16Z</time>
      </trkpt>
      <trkpt lat="47.79222" lon="7.05826">
        <ele>610.9</ele>
        <time>2024-10-13T11:37:24Z</time>
      </trkpt>
      <trkpt lat="47.79213" lon="7.05826">
        <ele>609</ele>
        <time>2024-10-13T11:37:32Z</time>
      </trkpt>
      <trkpt lat="47.79203" lon="7.05826">
        <ele>606.7</ele>
        <time>2024-10-13T11:37:41Z</time>
      </trkpt>
      <trkpt lat="47.79194" lon="7.05829">
        <ele>604.6</ele>
        <time>2024-10-13T11:37:50Z</time>
      </trkpt>
      <trkpt lat="47.79186" lon="7.05836">
        <ele>602.3</ele>
        <time>2024-10-13T11:37:56Z</time>
      </trkpt>
      <trkpt lat="47.79177" lon="7.05843">
        <ele>600</ele>
        <time>2024-10-13T11:38:03Z</time>
      </trkpt>
      <trkpt lat="47.79169" lon="7.05851">
        <ele>597.9</ele>
        <time>2024-10-13T11:38:15Z</time>
      </trkpt>
      <trkpt lat="47.79162" lon="7.05862">
        <ele>595.7</ele>
        <time>2024-10-13T11:38:24Z</time>
      </trkpt>
      <trkpt lat="47.79156" lon="7.05873">
        <ele>593.9</ele>
        <time>2024-10-13T11:38:33Z</time>
      </trkpt>
      <trkpt lat="47.79152" lon="7.05885">
        <ele>592.3</ele>
        <time>2024-10-13T11:38:43Z</time>
      </trkpt>
      <trkpt lat="47.79147" lon="7.05898">
        <ele>590.6</ele>
        <time>2024-10-13T11:38:54Z</time>
      </trkpt>
      <trkpt lat="47.79141" lon="7.05909">
        <ele>589</ele>
        <time>2024-10-13T11:39:00Z</time>
      </trkpt>
      <trkpt lat="47.79141" lon="7.05923">
        <ele>587.4</ele>
        <time>2024-10-13T11:39:09Z</time>
      </trkpt>
      <trkpt lat="47.79135" lon="7.05934">
        <ele>585.8</ele>
        <time>2024-10-13T11:39:17Z</time>
      </trkpt>
      <trkpt lat="47.7913" lon="7.05945">
        <ele>584.1</ele>
        <time>2024-10-13T11:39:24Z</time>
      </trkpt>
      <trkpt lat="47.79125" lon="7.05957">
        <ele>582.5</ele>
        <time>2024-10-13T11:39:32Z</time>
      </trkpt>
      <trkpt lat="47.79124" lon="7.05971">
        <ele>581</ele>
        <time>2024-10-13T11:39:39Z</time>
      </trkpt>
      <trkpt lat="47.79118" lon="7.05981">
        <ele>579.6</ele>
        <time>2024-10-13T11:39:45Z</time>
      </trkpt>
      <trkpt lat="47.79115" lon="7.05995">
        <ele>578.1</ele>
        <time>2024-10-13T11:39:53Z</time>
      </trkpt>
      <trkpt lat="47.7911" lon="7.06007">
        <ele>576.7</ele>
        <time>2024-10-13T11:40:02Z</time>
      </trkpt>
      <trkpt lat="47.79105" lon="7.0602">
        <ele>575.5</ele>
        <time>2024-10-13T11:40:10Z</time>
      </trkpt>
      <trkpt lat="47.79103" lon="7.06033">
        <ele>574.2</ele>
        <time>2024-10-13T11:40:16Z</time>
      </trkpt>
      <trkpt lat="47.79102" lon="7.06046">
        <ele>573.1</ele>
        <time>2024-10-13T11:40:23Z</time>
      </trkpt>
      <trkpt lat="47.79101" lon="7.06061">
        <ele>571.8</ele>
        <time>2024-10-13T11:40:30Z</time>
      </trkpt>
      <trkpt lat="47.79096" lon="7.06073">
        <ele>570.7</ele>
        <time>2024-10-13T11:40:38Z</time>
      </trkpt>
      <trkpt lat="47.79091" lon="7.06085">
        <ele>569.6</ele>
        <time>2024-10-13T11:40:46Z</time>
      </trkpt>
      <trkpt lat="47.79088" lon="7.06098">
        <ele>568.9</ele>
        <time>2024-10-13T11:40:55Z</time>
      </trkpt>
      <trkpt lat="47.79087" lon="7.06111">
        <ele>568.3</ele>
        <time>2024-10-13T11:41:04Z</time>
      </trkpt>
      <trkpt lat="47.79088" lon="7.06125">
        <ele>568</ele>
        <time>2024-10-13T11:41:11Z</time>
      </trkpt>
      <trkpt lat="47.79089" lon="7.0614">
        <ele>567.9</ele>
        <time>2024-10-13T11:41:17Z</time>
      </trkpt>
      <trkpt lat="47.79089" lon="7.06143">
        <ele>567.9</ele>
        <time>2024-10-13T11:41:25Z</time>
      </trkpt>
      <trkpt lat="47.79089" lon="7.06143">
        <ele>567.9</ele>
        <time>2024-10-13T11:41:26Z</time>
      </trkpt>
      <trkpt lat="47.79089" lon="7.06143">
        <ele>567.9</ele>
        <time>2024-10-13T11:41:27Z</time>
      </trkpt>
      <trkpt lat="47.79089" lon="7.06143">
        <ele>567.9</ele>
        <time>2024-10-13T11:41:28Z</time>
      </trkpt>
      <trkpt lat="47.79089" lon="7.06143">
        <ele>567.9</ele>
        <time>2024-10-13T11:41:29Z</time>
      </trkpt>
      <trkpt lat="47.79089" lon="7.06143">
        <ele>567.9</ele>
        <time>2024-10-13T11:41:30Z</time>
      </trkpt>
      <trkpt lat="47.79089" lon="7.06143">
        <ele>567.9</ele>
        <time>2024-10-13T11:41:31Z</time>
      </trkpt>
      <trkpt lat="47.79089" lon="7.06144">
        <ele>567.9</ele>
        <time>2024-10-13T11:41:37Z</time>
      </trkpt>
      <trkpt lat="47.79089" lon="7.06145">
        <ele>567.9</ele>
        <time>2024-10-13T11:41:38Z</time>
      </trkpt>
      <trkpt lat="47.79089" lon="7.06147">
        <ele>567.8</ele>
        <time>2024-10-13T11:41:39Z</time>
      </trkpt>
      <trkpt lat="47.79089" lon="7.0616">
        <ele>567.7</ele>
        <time>2024-10-13T11:41:47Z</time>
      </trkpt>
      <trkpt lat="47.79085" lon="7.06173">
        <ele>567.5</ele>
        <time>2024-10-13T11:41:58Z</time>
      </trkpt>
      <trkpt lat="47.79084" lon="7.06175">
        <ele>567.5</ele>
        <time>2024-10-13T11:42:02Z</time>
      </trkpt>
      <trkpt lat="47.79084" lon="7.06175">
        <ele>567.5</ele>
        <time>2024-10-13T11:42:03Z</time>
      </trkpt>
      <trkpt lat="47.79084" lon="7.06175">
        <ele>567.5</ele>
        <time>2024-10-13T11:42:04Z</time>
      </trkpt>
      <trkpt lat="47.79084" lon="7.06176">
        <ele>567.5</ele>
        <time>2024-10-13T11:42:07Z</time>
      </trkpt>
      <trkpt lat="47.79084" lon="7.06176">
        <ele>567.5</ele>
        <time>2024-10-13T11:42:08Z</time>
      </trkpt>
      <trkpt lat="47.79083" lon="7.06176">
        <ele>567.5</ele>
        <time>2024-10-13T11:42:09Z</time>
      </trkpt>
      <trkpt lat="47.7908" lon="7.06189">
        <ele>567.3</ele>
        <time>2024-10-13T11:42:17Z</time>
      </trkpt>
      <trkpt lat="47.79078" lon="7.06203">
        <ele>567.1</ele>
        <time>2024-10-13T11:42:25Z</time>
      </trkpt>
      <trkpt lat="47.79074" lon="7.06216">
        <ele>566.9</ele>
        <time>2024-10-13T11:42:32Z</time>
      </trkpt>
      <trkpt lat="47.79071" lon="7.06229">
        <ele>566.8</ele>
        <time>2024-10-13T11:42:40Z</time>
      </trkpt>
      <trkpt lat="47.79069" lon="7.06244">
        <ele>566.6</ele>
        <time>2024-10-13T11:42:48Z</time>
      </trkpt>
      <trkpt lat="47.79069" lon="7.06259">
        <ele>566.3</ele>
        <time>2024-10-13T11:42:56Z</time>
      </trkpt>
      <trkpt lat="47.79069" lon="7.06263">
        <ele>566.3</ele>
        <time>2024-10-13T11:43:02Z</time>
      </trkpt>
      <trkpt lat="47.79069" lon="7.06263">
        <ele>566.3</ele>
        <time>2024-10-13T11:43:03Z</time>
      </trkpt>
      <trkpt lat="47.79069" lon="7.06263">
        <ele>566.3</ele>
        <time>2024-10-13T11:43:04Z</time>
      </trkpt>
      <trkpt lat="47.79068" lon="7.06266">
        <ele>566.2</ele>
        <time>2024-10-13T11:43:10Z</time>
      </trkpt>
      <trkpt lat="47.79069" lon="7.06268">
        <ele>566.2</ele>
        <time>2024-10-13T11:43:11Z</time>
      </trkpt>
      <trkpt lat="47.79071" lon="7.06278">
        <ele>566</ele>
        <time>2024-10-13T11:43:22Z</time>
      </trkpt>
      <trkpt lat="47.79071" lon="7.06277">
        <ele>566</ele>
        <time>2024-10-13T11:43:23Z</time>
      </trkpt>
      <trkpt lat="47.79071" lon="7.06277">
        <ele>566</ele>
        <time>2024-10-13T11:43:24Z</time>
      </trkpt>
      <trkpt lat="47.7907" lon="7.06278">
        <ele>566</ele>
        <time>2024-10-13T11:44:05Z</time>
      </trkpt>
      <trkpt lat="47.79069" lon="7.06276">
        <ele>565.9</ele>
        <time>2024-10-13T11:44:06Z</time>
      </trkpt>
      <trkpt lat="47.79069" lon="7.06276">
        <ele>565.9</ele>
        <time>2024-10-13T11:44:10Z</time>
      </trkpt>
      <trkpt lat="47.79069" lon="7.06276">
        <ele>565.9</ele>
        <time>2024-10-13T11:44:11Z</time>
      </trkpt>
      <trkpt lat="47.79069" lon="7.06275">
        <ele>565.9</ele>
        <time>2024-10-13T11:44:20Z</time>
      </trkpt>
      <trkpt lat="47.79069" lon="7.06275">
        <ele>565.9</ele>
        <time>2024-10-13T11:44:21Z</time>
      </trkpt>
      <trkpt lat="47.79069" lon="7.06275">
        <ele>565.9</ele>
        <time>2024-10-13T11:44:22Z</time>
      </trkpt>
      <trkpt lat="47.79069" lon="7.06275">
        <ele>565.9</ele>
        <time>2024-10-13T11:44:23Z</time>
      </trkpt>
      <trkpt lat="47.79069" lon="7.06275">
        <ele>565.9</ele>
        <time>2024-10-13T11:44:24Z</time>
      </trkpt>
      <trkpt lat="47.79072" lon="7.06274">
        <ele>565.8</ele>
        <time>2024-10-13T11:45:16Z</time>
      </trkpt>
      <trkpt lat="47.79072" lon="7.06273">
        <ele>565.8</ele>
        <time>2024-10-13T11:45:17Z</time>
      </trkpt>
      <trkpt lat="47.79064" lon="7.06281">
        <ele>565.6</ele>
        <time>2024-10-13T11:45:27Z</time>
      </trkpt>
      <trkpt lat="47.79061" lon="7.06294">
        <ele>565.4</ele>
        <time>2024-10-13T11:45:34Z</time>
      </trkpt>
      <trkpt lat="47.79061" lon="7.06308">
        <ele>565.1</ele>
        <time>2024-10-13T11:45:41Z</time>
      </trkpt>
      <trkpt lat="47.79063" lon="7.06322">
        <ele>564.8</ele>
        <time>2024-10-13T11:45:49Z</time>
      </trkpt>
      <trkpt lat="47.79063" lon="7.06335">
        <ele>564.6</ele>
        <time>2024-10-13T11:45:57Z</time>
      </trkpt>
      <trkpt lat="47.79063" lon="7.0635">
        <ele>564.2</ele>
        <time>2024-10-13T11:46:06Z</time>
      </trkpt>
      <trkpt lat="47.79062" lon="7.06364">
        <ele>563.8</ele>
        <time>2024-10-13T11:46:14Z</time>
      </trkpt>
      <trkpt lat="47.79059" lon="7.06377">
        <ele>563.4</ele>
        <time>2024-10-13T11:46:22Z</time>
      </trkpt>
      <trkpt lat="47.79062" lon="7.0639">
        <ele>562.9</ele>
        <time>2024-10-13T11:46:29Z</time>
      </trkpt>
      <trkpt lat="47.7906" lon="7.06403">
        <ele>562.4</ele>
        <time>2024-10-13T11:46:38Z</time>
      </trkpt>
      <trkpt lat="47.79062" lon="7.06417">
        <ele>561.7</ele>
        <time>2024-10-13T11:46:47Z</time>
      </trkpt>
      <trkpt lat="47.79068" lon="7.06428">
        <ele>560.8</ele>
        <time>2024-10-13T11:46:54Z</time>
      </trkpt>
      <trkpt lat="47.79071" lon="7.06441">
        <ele>560</ele>
        <time>2024-10-13T11:47:01Z</time>
      </trkpt>
      <trkpt lat="47.79072" lon="7.06455">
        <ele>559.4</ele>
        <time>2024-10-13T11:47:09Z</time>
      </trkpt>
      <trkpt lat="47.79069" lon="7.06468">
        <ele>558.8</ele>
        <time>2024-10-13T11:47:17Z</time>
      </trkpt>
      <trkpt lat="47.79068" lon="7.06483">
        <ele>558</ele>
        <time>2024-10-13T11:47:25Z</time>
      </trkpt>
      <trkpt lat="47.79066" lon="7.06496">
        <ele>557.2</ele>
        <time>2024-10-13T11:47:31Z</time>
      </trkpt>
      <trkpt lat="47.79062" lon="7.06509">
        <ele>556.3</ele>
        <time>2024-10-13T11:47:39Z</time>
      </trkpt>
      <trkpt lat="47.7906" lon="7.06524">
        <ele>555.2</ele>
        <time>2024-10-13T11:47:48Z</time>
      </trkpt>
      <trkpt lat="47.79056" lon="7.06538">
        <ele>554.2</ele>
        <time>2024-10-13T11:47:56Z</time>
      </trkpt>
      <trkpt lat="47.79054" lon="7.06551">
        <ele>553.2</ele>
        <time>2024-10-13T11:48:02Z</time>
      </trkpt>
      <trkpt lat="47.7905" lon="7.06564">
        <ele>552.2</ele>
        <time>2024-10-13T11:48:09Z</time>
      </trkpt>
      <trkpt lat="47.79041" lon="7.06569">
        <ele>551.2</ele>
        <time>2024-10-13T11:48:17Z</time>
      </trkpt>
      <trkpt lat="47.79032" lon="7.06578">
        <ele>549.9</ele>
        <time>2024-10-13T11:48:26Z</time>
      </trkpt>
      <trkpt lat="47.79022" lon="7.06578">
        <ele>548.4</ele>
        <time>2024-10-13T11:48:33Z</time>
      </trkpt>
      <trkpt lat="47.79013" lon="7.06582">
        <ele>546.8</ele>
        <time>2024-10-13T11:48:41Z</time>
      </trkpt>
      <trkpt lat="47.79003" lon="7.06583">
        <ele>545.1</ele>
        <time>2024-10-13T11:48:47Z</time>
      </trkpt>
      <trkpt lat="47.78994" lon="7.06582">
        <ele>543.8</ele>
        <time>2024-10-13T11:48:56Z</time>
      </trkpt>
      <trkpt lat="47.78985" lon="7.06582">
        <ele>542.6</ele>
        <time>2024-10-13T11:49:03Z</time>
      </trkpt>
      <trkpt lat="47.78976" lon="7.06586">
        <ele>541.4</ele>
        <time>2024-10-13T11:49:13Z</time>
      </trkpt>
      <trkpt lat="47.78967" lon="7.0659">
        <ele>540.2</ele>
        <time>2024-10-13T11:49:23Z</time>
      </trkpt>
      <trkpt lat="47.78958" lon="7.06593">
        <ele>539</ele>
        <time>2024-10-13T11:49:30Z</time>
      </trkpt>
      <trkpt lat="47.78949" lon="7.06597">
        <ele>537.7</ele>
        <time>2024-10-13T11:49:40Z</time>
      </trkpt>
      <trkpt lat="47.78939" lon="7.06598">
        <ele>536.5</ele>
        <time>2024-10-13T11:49:48Z</time>
      </trkpt>
      <trkpt lat="47.78929" lon="7.066">
        <ele>535.3</ele>
        <time>2024-10-13T11:49:56Z</time>
      </trkpt>
      <trkpt lat="47.78919" lon="7.06596">
        <ele>533.9</ele>
        <time>2024-10-13T11:50:04Z</time>
      </trkpt>
      <trkpt lat="47.7891" lon="7.06595">
        <ele>532.5</ele>
        <time>2024-10-13T11:50:12Z</time>
      </trkpt>
      <trkpt lat="47.78901" lon="7.06591">
        <ele>530.9</ele>
        <time>2024-10-13T11:50:22Z</time>
      </trkpt>
      <trkpt lat="47.78891" lon="7.06587">
        <ele>529</ele>
        <time>2024-10-13T11:50:34Z</time>
      </trkpt>
      <trkpt lat="47.7888" lon="7.06585">
        <ele>527.1</ele>
        <time>2024-10-13T11:50:42Z</time>
      </trkpt>
      <trkpt lat="47.78871" lon="7.06583">
        <ele>525.6</ele>
        <time>2024-10-13T11:50:48Z</time>
      </trkpt>
      <trkpt lat="47.78862" lon="7.06578">
        <ele>524.1</ele>
        <time>2024-10-13T11:50:55Z</time>
      </trkpt>
      <trkpt lat="47.78854" lon="7.0657">
        <ele>522.4</ele>
        <time>2024-10-13T11:51:04Z</time>
      </trkpt>
      <trkpt lat="47.78846" lon="7.06563">
        <ele>520.7</ele>
        <time>2024-10-13T11:51:12Z</time>
      </trkpt>
      <trkpt lat="47.78838" lon="7.06558">
        <ele>519</ele>
        <time>2024-10-13T11:51:20Z</time>
      </trkpt>
      <trkpt lat="47.7883" lon="7.06551">
        <ele>517</ele>
        <time>2024-10-13T11:51:30Z</time>
      </trkpt>
      <trkpt lat="47.78821" lon="7.06545">
        <ele>515</ele>
        <time>2024-10-13T11:51:39Z</time>
      </trkpt>
      <trkpt lat="47.78813" lon="7.06538">
        <ele>513.1</ele>
        <time>2024-10-13T11:51:48Z</time>
      </trkpt>
      <trkpt lat="47.78804" lon="7.06535">
        <ele>511.3</ele>
        <time>2024-10-13T11:51:58Z</time>
      </trkpt>
      <trkpt lat="47.78795" lon="7.06532">
        <ele>509.5</ele>
        <time>2024-10-13T11:52:05Z</time>
      </trkpt>
      <trkpt lat="47.78787" lon="7.06522">
        <ele>507.7</ele>
        <time>2024-10-13T11:52:18Z</time>
      </trkpt>
      <trkpt lat="47.78778" lon="7.0652">
        <ele>506.2</ele>
        <time>2024-10-13T11:52:25Z</time>
      </trkpt>
      <trkpt lat="47.78769" lon="7.0652">
        <ele>504.8</ele>
        <time>2024-10-13T11:52:33Z</time>
      </trkpt>
      <trkpt lat="47.78759" lon="7.0652">
        <ele>503.5</ele>
        <time>2024-10-13T11:52:41Z</time>
      </trkpt>
      <trkpt lat="47.78749" lon="7.06522">
        <ele>502.2</ele>
        <time>2024-10-13T11:52:49Z</time>
      </trkpt>
      <trkpt lat="47.7874" lon="7.06529">
        <ele>500.9</ele>
        <time>2024-10-13T11:52:57Z</time>
      </trkpt>
      <trkpt lat="47.78733" lon="7.06538">
        <ele>499.6</ele>
        <time>2024-10-13T11:53:07Z</time>
      </trkpt>
      <trkpt lat="47.78724" lon="7.06544">
        <ele>498.4</ele>
        <time>2024-10-13T11:53:14Z</time>
      </trkpt>
      <trkpt lat="47.78716" lon="7.06553">
        <ele>496.6</ele>
        <time>2024-10-13T11:53:21Z</time>
      </trkpt>
      <trkpt lat="47.78706" lon="7.06551">
        <ele>496.4</ele>
        <time>2024-10-13T11:53:32Z</time>
      </trkpt>
      <trkpt lat="47.78696" lon="7.06549">
        <ele>495.7</ele>
        <time>2024-10-13T11:53:41Z</time>
      </trkpt>
      <trkpt lat="47.78695" lon="7.06549">
        <ele>495.6</ele>
        <time>2024-10-13T11:53:46Z</time>
      </trkpt>
      <trkpt lat="47.78695" lon="7.06549">
        <ele>495.6</ele>
        <time>2024-10-13T11:53:47Z</time>
      </trkpt>
      <trkpt lat="47.78695" lon="7.0655">
        <ele>495.6</ele>
        <time>2024-10-13T11:54:17Z</time>
      </trkpt>
      <trkpt lat="47.78695" lon="7.0655">
        <ele>495.6</ele>
        <time>2024-10-13T11:54:18Z</time>
      </trkpt>
      <trkpt lat="47.78694" lon="7.0655">
        <ele>495.5</ele>
        <time>2024-10-13T11:54:19Z</time>
      </trkpt>
      <trkpt lat="47.78694" lon="7.0655">
        <ele>495.5</ele>
        <time>2024-10-13T11:54:23Z</time>
      </trkpt>
      <trkpt lat="47.78695" lon="7.0655">
        <ele>495.5</ele>
        <time>2024-10-13T11:54:24Z</time>
      </trkpt>
      <trkpt lat="47.78694" lon="7.0655">
        <ele>495.5</ele>
        <time>2024-10-13T11:54:25Z</time>
      </trkpt>
      <trkpt lat="47.78695" lon="7.06551">
        <ele>495.4</ele>
        <time>2024-10-13T11:54:35Z</time>
      </trkpt>
      <trkpt lat="47.78695" lon="7.06552">
        <ele>495.4</ele>
        <time>2024-10-13T11:54:36Z</time>
      </trkpt>
      <trkpt lat="47.78687" lon="7.06561">
        <ele>494.8</ele>
        <time>2024-10-13T11:54:44Z</time>
      </trkpt>
      <trkpt lat="47.78679" lon="7.06567">
        <ele>494.4</ele>
        <time>2024-10-13T11:54:52Z</time>
      </trkpt>
      <trkpt lat="47.7867" lon="7.06569">
        <ele>494</ele>
        <time>2024-10-13T11:54:59Z</time>
      </trkpt>
      <trkpt lat="47.7866" lon="7.06571">
        <ele>493.7</ele>
        <time>2024-10-13T11:55:07Z</time>
      </trkpt>
      <trkpt lat="47.78651" lon="7.06574">
        <ele>493.5</ele>
        <time>2024-10-13T11:55:15Z</time>
      </trkpt>
      <trkpt lat="47.78642" lon="7.06579">
        <ele>493.5</ele>
        <time>2024-10-13T11:55:23Z</time>
      </trkpt>
      <trkpt lat="47.78633" lon="7.06579">
        <ele>493.6</ele>
        <time>2024-10-13T11:55:33Z</time>
      </trkpt>
      <trkpt lat="47.78624" lon="7.06583">
        <ele>493.7</ele>
        <time>2024-10-13T11:55:40Z</time>
      </trkpt>
      <trkpt lat="47.78615" lon="7.06587">
        <ele>493.9</ele>
        <time>2024-10-13T11:55:47Z</time>
      </trkpt>
      <trkpt lat="47.78608" lon="7.06588">
        <ele>494</ele>
        <time>2024-10-13T11:55:56Z</time>
      </trkpt>
      <trkpt lat="47.78608" lon="7.06588">
        <ele>494</ele>
        <time>2024-10-13T11:55:57Z</time>
      </trkpt>
      <trkpt lat="47.78608" lon="7.06588">
        <ele>494</ele>
        <time>2024-10-13T11:56:10Z</time>
      </trkpt>
      <trkpt lat="47.78608" lon="7.06588">
        <ele>494</ele>
        <time>2024-10-13T11:56:11Z</time>
      </trkpt>
      <trkpt lat="47.78608" lon="7.06588">
        <ele>494</ele>
        <time>2024-10-13T11:56:12Z</time>
      </trkpt>
      <trkpt lat="47.78608" lon="7.06588">
        <ele>494</ele>
        <time>2024-10-13T11:56:13Z</time>
      </trkpt>
      <trkpt lat="47.78608" lon="7.06588">
        <ele>494</ele>
        <time>2024-10-13T11:56:14Z</time>
      </trkpt>
      <trkpt lat="47.78608" lon="7.06589">
        <ele>494</ele>
        <time>2024-10-13T11:56:35Z</time>
      </trkpt>
      <trkpt lat="47.78607" lon="7.0659">
        <ele>494</ele>
        <time>2024-10-13T11:56:36Z</time>
      </trkpt>
      <trkpt lat="47.78607" lon="7.06592">
        <ele>494</ele>
        <time>2024-10-13T11:56:37Z</time>
      </trkpt>
      <trkpt lat="47.78605" lon="7.06605">
        <ele>494.1</ele>
        <time>2024-10-13T11:56:46Z</time>
      </trkpt>
      <trkpt lat="47.78601" lon="7.06618">
        <ele>494.2</ele>
        <time>2024-10-13T11:56:54Z</time>
      </trkpt>
      <trkpt lat="47.78595" lon="7.06629">
        <ele>494.4</ele>
        <time>2024-10-13T11:57:02Z</time>
      </trkpt>
      <trkpt lat="47.78591" lon="7.06642">
        <ele>494.7</ele>
        <time>2024-10-13T11:57:10Z</time>
      </trkpt>
      <trkpt lat="47.78586" lon="7.06654">
        <ele>495</ele>
        <time>2024-10-13T11:57:19Z</time>
      </trkpt>
      <trkpt lat="47.7858" lon="7.06665">
        <ele>495.3</ele>
        <time>2024-10-13T11:57:27Z</time>
      </trkpt>
      <trkpt lat="47.78576" lon="7.06679">
        <ele>495.5</ele>
        <time>2024-10-13T11:57:36Z</time>
      </trkpt>
      <trkpt lat="47.78571" lon="7.06691">
        <ele>495.8</ele>
        <time>2024-10-13T11:57:44Z</time>
      </trkpt>
      <trkpt lat="47.78568" lon="7.06704">
        <ele>496.1</ele>
        <time>2024-10-13T11:57:51Z</time>
      </trkpt>
      <trkpt lat="47.78564" lon="7.06717">
        <ele>496.4</ele>
        <time>2024-10-13T11:57:58Z</time>
      </trkpt>
      <trkpt lat="47.78559" lon="7.0673">
        <ele>496.7</ele>
        <time>2024-10-13T11:58:06Z</time>
      </trkpt>
      <trkpt lat="47.78555" lon="7.06742">
        <ele>497.1</ele>
        <time>2024-10-13T11:58:13Z</time>
      </trkpt>
      <trkpt lat="47.7855" lon="7.06755">
        <ele>497.5</ele>
        <time>2024-10-13T11:58:20Z</time>
      </trkpt>
      <trkpt lat="47.78548" lon="7.06769">
        <ele>498</ele>
        <time>2024-10-13T11:58:30Z</time>
      </trkpt>
      <trkpt lat="47.78544" lon="7.06783">
        <ele>498.6</ele>
        <time>2024-10-13T11:58:39Z</time>
      </trkpt>
      <trkpt lat="47.7854" lon="7.06798">
        <ele>499.3</ele>
        <time>2024-10-13T11:58:48Z</time>
      </trkpt>
      <trkpt lat="47.78535" lon="7.0681">
        <ele>500</ele>
        <time>2024-10-13T11:58:56Z</time>
      </trkpt>
      <trkpt lat="47.78532" lon="7.06823">
        <ele>500.8</ele>
        <time>2024-10-13T11:59:04Z</time>
      </trkpt>
      <trkpt lat="47.78528" lon="7.06836">
        <ele>501.1</ele>
        <time>2024-10-13T11:59:11Z</time>
      </trkpt>
      <trkpt lat="47.78525" lon="7.06849">
        <ele>501.2</ele>
        <time>2024-10-13T11:59:18Z</time>
      </trkpt>
      <trkpt lat="47.78524" lon="7.06862">
        <ele>501.2</ele>
        <time>2024-10-13T11:59:25Z</time>
      </trkpt>
      <trkpt lat="47.78524" lon="7.06876">
        <ele>501.2</ele>
        <time>2024-10-13T11:59:32Z</time>
      </trkpt>
      <trkpt lat="47.78525" lon="7.0689">
        <ele>501.2</ele>
        <time>2024-10-13T11:59:40Z</time>
      </trkpt>
      <trkpt lat="47.78526" lon="7.06905">
        <ele>501.2</ele>
        <time>2024-10-13T11:59:48Z</time>
      </trkpt>
      <trkpt lat="47.78526" lon="7.0692">
        <ele>501.2</ele>
        <time>2024-10-13T11:59:56Z</time>
      </trkpt>
      <trkpt lat="47.78526" lon="7.06935">
        <ele>501.2</ele>
        <time>2024-10-13T12:00:04Z</time>
      </trkpt>
      <trkpt lat="47.78526" lon="7.06949">
        <ele>501.2</ele>
        <time>2024-10-13T12:00:12Z</time>
      </trkpt>
      <trkpt lat="47.78527" lon="7.06963">
        <ele>501.3</ele>
        <time>2024-10-13T12:00:19Z</time>
      </trkpt>
      <trkpt lat="47.78528" lon="7.06977">
        <ele>501.4</ele>
        <time>2024-10-13T12:00:26Z</time>
      </trkpt>
      <trkpt lat="47.78529" lon="7.06991">
        <ele>501.5</ele>
        <time>2024-10-13T12:00:33Z</time>
      </trkpt>
      <trkpt lat="47.78529" lon="7.07005">
        <ele>501.6</ele>
        <time>2024-10-13T12:00:40Z</time>
      </trkpt>
      <trkpt lat="47.7853" lon="7.0702">
        <ele>501.8</ele>
        <time>2024-10-13T12:00:48Z</time>
      </trkpt>
      <trkpt lat="47.7853" lon="7.07034">
        <ele>501.9</ele>
        <time>2024-10-13T12:00:56Z</time>
      </trkpt>
      <trkpt lat="47.7853" lon="7.07049">
        <ele>502.1</ele>
        <time>2024-10-13T12:01:04Z</time>
      </trkpt>
      <trkpt lat="47.78528" lon="7.07064">
        <ele>502.3</ele>
        <time>2024-10-13T12:01:12Z</time>
      </trkpt>
      <trkpt lat="47.78525" lon="7.07079">
        <ele>502.5</ele>
        <time>2024-10-13T12:01:20Z</time>
      </trkpt>
      <trkpt lat="47.78521" lon="7.07092">
        <ele>502.7</ele>
        <time>2024-10-13T12:01:28Z</time>
      </trkpt>
      <trkpt lat="47.78517" lon="7.07105">
        <ele>502.8</ele>
        <time>2024-10-13T12:01:36Z</time>
      </trkpt>
      <trkpt lat="47.78512" lon="7.07117">
        <ele>503</ele>
        <time>2024-10-13T12:01:43Z</time>
      </trkpt>
      <trkpt lat="47.78507" lon="7.07128">
        <ele>503.2</ele>
        <time>2024-10-13T12:01:50Z</time>
      </trkpt>
      <trkpt lat="47.78501" lon="7.0714">
        <ele>503.4</ele>
        <time>2024-10-13T12:01:58Z</time>
      </trkpt>
      <trkpt lat="47.78495" lon="7.07151">
        <ele>503.6</ele>
        <time>2024-10-13T12:02:06Z</time>
      </trkpt>
      <trkpt lat="47.78488" lon="7.07162">
        <ele>503.9</ele>
        <time>2024-10-13T12:02:14Z</time>
      </trkpt>
      <trkpt lat="47.78481" lon="7.07173">
        <ele>504.1</ele>
        <time>2024-10-13T12:02:22Z</time>
      </trkpt>
      <trkpt lat="47.78474" lon="7.07184">
        <ele>504.2</ele>
        <time>2024-10-13T12:02:30Z</time>
      </trkpt>
      <trkpt lat="47.78467" lon="7.07193">
        <ele>504.2</ele>
        <time>2024-10-13T12:02:38Z</time>
      </trkpt>
      <trkpt lat="47.7846" lon="7.07203">
        <ele>504.1</ele>
        <time>2024-10-13T12:02:46Z</time>
      </trkpt>
      <trkpt lat="47.78454" lon="7.07215">
        <ele>503.9</ele>
        <time>2024-10-13T12:02:54Z</time>
      </trkpt>
      <trkpt lat="47.78449" lon="7.07228">
        <ele>503.6</ele>
        <time>2024-10-13T12:03:02Z</time>
      </trkpt>
      <trkpt lat="47.78446" lon="7.07241">
        <ele>503.3</ele>
        <time>2024-10-13T12:03:10Z</time>
      </trkpt>
      <trkpt lat="47.78442" lon="7.07254">
        <ele>503</ele>
        <time>2024-10-13T12:03:18Z</time>
      </trkpt>
      <trkpt lat="47.78437" lon="7.07267">
        <ele>502.6</ele>
        <time>2024-10-13T12:03:27Z</time>
      </trkpt>
      <trkpt lat="47.78433" lon="7.07279">
        <ele>502.1</ele>
        <time>2024-10-13T12:03:35Z</time>
      </trkpt>
      <trkpt lat="47.78429" lon="7.07293">
        <ele>501.4</ele>
        <time>2024-10-13T12:03:44Z</time>
      </trkpt>
      <trkpt lat="47.78425" lon="7.07307">
        <ele>500.8</ele>
        <time>2024-10-13T12:03:53Z</time>
      </trkpt>
      <trkpt lat="47.78423" lon="7.0732">
        <ele>500.1</ele>
        <time>2024-10-13T12:04:02Z</time>
      </trkpt>
      <trkpt lat="47.7842" lon="7.07334">
        <ele>499.3</ele>
        <time>2024-10-13T12:04:11Z</time>
      </trkpt>
      <trkpt lat="47.78416" lon="7.07347">
        <ele>498.4</ele>
        <time>2024-10-13T12:04:21Z</time>
      </trkpt>
      <trkpt lat="47.78413" lon="7.0736">
        <ele>497.6</ele>
        <time>2024-10-13T12:04:30Z</time>
      </trkpt>
      <trkpt lat="47.78413" lon="7.07374">
        <ele>496.8</ele>
        <time>2024-10-13T12:04:39Z</time>
      </trkpt>
      <trkpt lat="47.78413" lon="7.07377">
        <ele>496.6</ele>
        <time>2024-10-13T12:04:46Z</time>
      </trkpt>
      <trkpt lat="47.78413" lon="7.07379">
        <ele>496.5</ele>
        <time>2024-10-13T12:04:47Z</time>
      </trkpt>
      <trkpt lat="47.78413" lon="7.07381">
        <ele>496.4</ele>
        <time>2024-10-13T12:04:48Z</time>
      </trkpt>
      <trkpt lat="47.78414" lon="7.07382">
        <ele>496.3</ele>
        <time>2024-10-13T12:04:49Z</time>
      </trkpt>
      <trkpt lat="47.78414" lon="7.07384">
        <ele>496.2</ele>
        <time>2024-10-13T12:04:50Z</time>
      </trkpt>
      <trkpt lat="47.78413" lon="7.07398">
        <ele>495.3</ele>
        <time>2024-10-13T12:04:59Z</time>
      </trkpt>
      <trkpt lat="47.78413" lon="7.07413">
        <ele>494.5</ele>
        <time>2024-10-13T12:05:08Z</time>
      </trkpt>
      <trkpt lat="47.78412" lon="7.07427">
        <ele>493.7</ele>
        <time>2024-10-13T12:05:17Z</time>
      </trkpt>
      <trkpt lat="47.7841" lon="7.07441">
        <ele>492.9</ele>
        <time>2024-10-13T12:05:25Z</time>
      </trkpt>
      <trkpt lat="47.78407" lon="7.07454">
        <ele>492</ele>
        <time>2024-10-13T12:05:34Z</time>
      </trkpt>
      <trkpt lat="47.78403" lon="7.07467">
        <ele>491.2</ele>
        <time>2024-10-13T12:05:42Z</time>
      </trkpt>
      <trkpt lat="47.784" lon="7.0748">
        <ele>490.3</ele>
        <time>2024-10-13T12:05:50Z</time>
      </trkpt>
      <trkpt lat="47.78398" lon="7.07495">
        <ele>489.4</ele>
        <time>2024-10-13T12:05:59Z</time>
      </trkpt>
      <trkpt lat="47.78397" lon="7.07508">
        <ele>488.6</ele>
        <time>2024-10-13T12:06:07Z</time>
      </trkpt>
      <trkpt lat="47.78395" lon="7.07523">
        <ele>487.7</ele>
        <time>2024-10-13T12:06:16Z</time>
      </trkpt>
      <trkpt lat="47.78394" lon="7.07536">
        <ele>487</ele>
        <time>2024-10-13T12:06:24Z</time>
      </trkpt>
      <trkpt lat="47.78393" lon="7.07551">
        <ele>486.3</ele>
        <time>2024-10-13T12:06:32Z</time>
      </trkpt>
      <trkpt lat="47.78393" lon="7.07565">
        <ele>485.6</ele>
        <time>2024-10-13T12:06:40Z</time>
      </trkpt>
      <trkpt lat="47.78393" lon="7.07579">
        <ele>484.9</ele>
        <time>2024-10-13T12:06:49Z</time>
      </trkpt>
      <trkpt lat="47.78394" lon="7.07594">
        <ele>484.2</ele>
        <time>2024-10-13T12:06:58Z</time>
      </trkpt>
      <trkpt lat="47.78397" lon="7.07607">
        <ele>483.7</ele>
        <time>2024-10-13T12:07:07Z</time>
      </trkpt>
      <trkpt lat="47.78398" lon="7.07611">
        <ele>483.5</ele>
        <time>2024-10-13T12:07:13Z</time>
      </trkpt>
      <trkpt lat="47.78398" lon="7.07611">
        <ele>483.5</ele>
        <time>2024-10-13T12:07:14Z</time>
      </trkpt>
      <trkpt lat="47.78398" lon="7.07611">
        <ele>483.5</ele>
        <time>2024-10-13T12:07:20Z</time>
      </trkpt>
      <trkpt lat="47.78398" lon="7.07612">
        <ele>483.4</ele>
        <time>2024-10-13T12:07:21Z</time>
      </trkpt>
      <trkpt lat="47.78398" lon="7.07613">
        <ele>483.4</ele>
        <time>2024-10-13T12:07:22Z</time>
      </trkpt>
      <trkpt lat="47.78401" lon="7.07627">
        <ele>482.9</ele>
        <time>2024-10-13T12:07:32Z</time>
      </trkpt>
      <trkpt lat="47.78403" lon="7.07641">
        <ele>482.3</ele>
        <time>2024-10-13T12:07:42Z</time>
      </trkpt>
      <trkpt lat="47.78403" lon="7.07641">
        <ele>482.3</ele>
        <time>2024-10-13T12:07:45Z</time>
      </trkpt>
      <trkpt lat="47.78403" lon="7.07641">
        <ele>482.3</ele>
        <time>2024-10-13T12:07:46Z</time>
      </trkpt>
      <trkpt lat="47.78404" lon="7.07644">
        <ele>482.1</ele>
        <time>2024-10-13T12:08:15Z</time>
      </trkpt>
      <trkpt lat="47.78404" lon="7.07645">
        <ele>482.1</ele>
        <time>2024-10-13T12:08:16Z</time>
      </trkpt>
      <trkpt lat="47.78405" lon="7.07647">
        <ele>482</ele>
        <time>2024-10-13T12:08:17Z</time>
      </trkpt>
      <trkpt lat="47.78401" lon="7.07659">
        <ele>481.4</ele>
        <time>2024-10-13T12:08:28Z</time>
      </trkpt>
      <trkpt lat="47.78392" lon="7.07663">
        <ele>480.4</ele>
        <time>2024-10-13T12:08:38Z</time>
      </trkpt>
      <trkpt lat="47.78392" lon="7.07678">
        <ele>479.3</ele>
        <time>2024-10-13T12:08:46Z</time>
      </trkpt>
      <trkpt lat="47.78391" lon="7.07693">
        <ele>478.2</ele>
        <time>2024-10-13T12:08:56Z</time>
      </trkpt>
      <trkpt lat="47.78388" lon="7.07707">
        <ele>477.1</ele>
        <time>2024-10-13T12:09:05Z</time>
      </trkpt>
      <trkpt lat="47.78387" lon="7.07721">
        <ele>476.1</ele>
        <time>2024-10-13T12:09:13Z</time>
      </trkpt>
      <trkpt lat="47.7839" lon="7.07735">
        <ele>475.2</ele>
        <time>2024-10-13T12:09:20Z</time>
      </trkpt>
      <trkpt lat="47.78391" lon="7.07749">
        <ele>474.2</ele>
        <time>2024-10-13T12:09:27Z</time>
      </trkpt>
      <trkpt lat="47.78388" lon="7.07762">
        <ele>473.2</ele>
        <time>2024-10-13T12:09:35Z</time>
      </trkpt>
      <trkpt lat="47.78385" lon="7.07775">
        <ele>472.2</ele>
        <time>2024-10-13T12:09:44Z</time>
      </trkpt>
      <trkpt lat="47.78384" lon="7.07789">
        <ele>471.1</ele>
        <time>2024-10-13T12:09:51Z</time>
      </trkpt>
      <trkpt lat="47.78382" lon="7.07803">
        <ele>470</ele>
        <time>2024-10-13T12:10:00Z</time>
      </trkpt>
      <trkpt lat="47.7838" lon="7.07816">
        <ele>469.1</ele>
        <time>2024-10-13T12:10:08Z</time>
      </trkpt>
      <trkpt lat="47.78381" lon="7.07831">
        <ele>468.1</ele>
        <time>2024-10-13T12:10:17Z</time>
      </trkpt>
      <trkpt lat="47.78384" lon="7.07845">
        <ele>467.2</ele>
        <time>2024-10-13T12:10:24Z</time>
      </trkpt>
      <trkpt lat="47.78387" lon="7.07858">
        <ele>466.3</ele>
        <time>2024-10-13T12:10:32Z</time>
      </trkpt>
      <trkpt lat="47.78386" lon="7.07872">
        <ele>465.3</ele>
        <time>2024-10-13T12:10:39Z</time>
      </trkpt>
      <trkpt lat="47.78387" lon="7.07887">
        <ele>464.1</ele>
        <time>2024-10-13T12:10:47Z</time>
      </trkpt>
      <trkpt lat="47.78389" lon="7.079">
        <ele>463</ele>
        <time>2024-10-13T12:10:53Z</time>
      </trkpt>
      <trkpt lat="47.78391" lon="7.07915">
        <ele>461.8</ele>
        <time>2024-10-13T12:11:01Z</time>
      </trkpt>
      <trkpt lat="47.78392" lon="7.07928">
        <ele>460.7</ele>
        <time>2024-10-13T12:11:09Z</time>
      </trkpt>
      <trkpt lat="47.78394" lon="7.07942">
        <ele>459.5</ele>
        <time>2024-10-13T12:11:17Z</time>
      </trkpt>
      <trkpt lat="47.78396" lon="7.07956">
        <ele>458.1</ele>
        <time>2024-10-13T12:11:25Z</time>
      </trkpt>
      <trkpt lat="47.78394" lon="7.0797">
        <ele>456.9</ele>
        <time>2024-10-13T12:11:33Z</time>
      </trkpt>
      <trkpt lat="47.7839" lon="7.07983">
        <ele>455.7</ele>
        <time>2024-10-13T12:11:42Z</time>
      </trkpt>
      <trkpt lat="47.78389" lon="7.07996">
        <ele>454.6</ele>
        <time>2024-10-13T12:11:50Z</time>
      </trkpt>
      <trkpt lat="47.78387" lon="7.0801">
        <ele>453.5</ele>
        <time>2024-10-13T12:12:00Z</time>
      </trkpt>
      <trkpt lat="47.78388" lon="7.08024">
        <ele>452.4</ele>
        <time>2024-10-13T12:12:07Z</time>
      </trkpt>
      <trkpt lat="47.78388" lon="7.08039">
        <ele>451.1</ele>
        <time>2024-10-13T12:12:16Z</time>
      </trkpt>
      <trkpt lat="47.78388" lon="7.08053">
        <ele>449.9</ele>
        <time>2024-10-13T12:12:25Z</time>
      </trkpt>
      <trkpt lat="47.78388" lon="7.08067">
        <ele>448.7</ele>
        <time>2024-10-13T12:12:36Z</time>
      </trkpt>
      <trkpt lat="47.78385" lon="7.08081">
        <ele>447.5</ele>
        <time>2024-10-13T12:12:49Z</time>
      </trkpt>
      <trkpt lat="47.7838" lon="7.08093">
        <ele>446.3</ele>
        <time>2024-10-13T12:13:03Z</time>
      </trkpt>
      <trkpt lat="47.7838" lon="7.08107">
        <ele>444.9</ele>
        <time>2024-10-13T12:13:11Z</time>
      </trkpt>
      <trkpt lat="47.78382" lon="7.08121">
        <ele>443.5</ele>
        <time>2024-10-13T12:13:19Z</time>
      </trkpt>
      <trkpt lat="47.7838" lon="7.08136">
        <ele>441.8</ele>
        <time>2024-10-13T12:13:28Z</time>
      </trkpt>
      <trkpt lat="47.78373" lon="7.08147">
        <ele>440.3</ele>
        <time>2024-10-13T12:13:38Z</time>
      </trkpt>
      <trkpt lat="47.78366" lon="7.08158">
        <ele>438.5</ele>
        <time>2024-10-13T12:13:47Z</time>
      </trkpt>
      <trkpt lat="47.78362" lon="7.08165">
        <ele>437.2</ele>
        <time>2024-10-13T12:13:55Z</time>
      </trkpt>
      <trkpt lat="47.78362" lon="7.08165">
        <ele>437.2</ele>
        <time>2024-10-13T12:13:56Z</time>
      </trkpt>
      <trkpt lat="47.78363" lon="7.08165">
        <ele>437.1</ele>
        <time>2024-10-13T12:14:07Z</time>
      </trkpt>
      <trkpt lat="47.78363" lon="7.08167">
        <ele>436.9</ele>
        <time>2024-10-13T12:14:08Z</time>
      </trkpt>
      <trkpt lat="47.78363" lon="7.08167">
        <ele>436.8</ele>
        <time>2024-10-13T12:14:09Z</time>
      </trkpt>
      <trkpt lat="47.7836" lon="7.08181">
        <ele>434.7</ele>
        <time>2024-10-13T12:14:22Z</time>
      </trkpt>
      <trkpt lat="47.78351" lon="7.08188">
        <ele>432.8</ele>
        <time>2024-10-13T12:14:31Z</time>
      </trkpt>
      <trkpt lat="47.78343" lon="7.08194">
        <ele>431.3</ele>
        <time>2024-10-13T12:14:38Z</time>
      </trkpt>
      <trkpt lat="47.78338" lon="7.08206">
        <ele>429.8</ele>
        <time>2024-10-13T12:14:46Z</time>
      </trkpt>
      <trkpt lat="47.78334" lon="7.08218">
        <ele>428</ele>
        <time>2024-10-13T12:14:54Z</time>
      </trkpt>
      <trkpt lat="47.78331" lon="7.08232">
        <ele>426.2</ele>
        <time>2024-10-13T12:15:03Z</time>
      </trkpt>
      <trkpt lat="47.78328" lon="7.08246">
        <ele>424.3</ele>
        <time>2024-10-13T12:15:11Z</time>
      </trkpt>
      <trkpt lat="47.7833" lon="7.0826">
        <ele>422.4</ele>
        <time>2024-10-13T12:15:19Z</time>
      </trkpt>
      <trkpt lat="47.78322" lon="7.08269">
        <ele>420.1</ele>
        <time>2024-10-13T12:15:31Z</time>
      </trkpt>
      <trkpt lat="47.78319" lon="7.08283">
        <ele>417.9</ele>
        <time>2024-10-13T12:15:39Z</time>
      </trkpt>
      <trkpt lat="47.78311" lon="7.08291">
        <ele>415.9</ele>
        <time>2024-10-13T12:15:50Z</time>
      </trkpt>
      <trkpt lat="47.78305" lon="7.083">
        <ele>413.9</ele>
        <time>2024-10-13T12:15:59Z</time>
      </trkpt>
      <trkpt lat="47.78299" lon="7.08312">
        <ele>411.9</ele>
        <time>2024-10-13T12:16:08Z</time>
      </trkpt>
      <trkpt lat="47.78296" lon="7.08326">
        <ele>410.1</ele>
        <time>2024-10-13T12:16:17Z</time>
      </trkpt>
      <trkpt lat="47.7829" lon="7.08337">
        <ele>408.4</ele>
        <time>2024-10-13T12:16:26Z</time>
      </trkpt>
      <trkpt lat="47.78288" lon="7.08351">
        <ele>406.7</ele>
        <time>2024-10-13T12:16:34Z</time>
      </trkpt>
      <trkpt lat="47.78285" lon="7.08363">
        <ele>405.3</ele>
        <time>2024-10-13T12:16:42Z</time>
      </trkpt>
      <trkpt lat="47.78283" lon="7.08377">
        <ele>404</ele>
        <time>2024-10-13T12:16:50Z</time>
      </trkpt>
      <trkpt lat="47.7828" lon="7.0839">
        <ele>402.7</ele>
        <time>2024-10-13T12:16:59Z</time>
      </trkpt>
      <trkpt lat="47.78282" lon="7.08404">
        <ele>401.7</ele>
        <time>2024-10-13T12:17:08Z</time>
      </trkpt>
      <trkpt lat="47.78284" lon="7.08418">
        <ele>400.7</ele>
        <time>2024-10-13T12:17:16Z</time>
      </trkpt>
      <trkpt lat="47.78288" lon="7.08431">
        <ele>399.8</ele>
        <time>2024-10-13T12:17:24Z</time>
      </trkpt>
      <trkpt lat="47.7829" lon="7.08445">
        <ele>399</ele>
        <time>2024-10-13T12:17:33Z</time>
      </trkpt>
      <trkpt lat="47.78289" lon="7.0846">
        <ele>397.8</ele>
        <time>2024-10-13T12:17:41Z</time>
      </trkpt>
      <trkpt lat="47.78291" lon="7.08474">
        <ele>396.6</ele>
        <time>2024-10-13T12:17:49Z</time>
      </trkpt>
      <trkpt lat="47.78293" lon="7.08487">
        <ele>395.4</ele>
        <time>2024-10-13T12:17:58Z</time>
      </trkpt>
      <trkpt lat="47.78296" lon="7.085">
        <ele>394.2</ele>
        <time>2024-10-13T12:18:07Z</time>
      </trkpt>
      <trkpt lat="47.783" lon="7.08512">
        <ele>393</ele>
        <time>2024-10-13T12:18:16Z</time>
      </trkpt>
      <trkpt lat="47.78305" lon="7.08525">
        <ele>391.7</ele>
        <time>2024-10-13T12:18:25Z</time>
      </trkpt>
      <trkpt lat="47.7831" lon="7.08539">
        <ele>390.5</ele>
        <time>2024-10-13T12:18:34Z</time>
      </trkpt>
      <trkpt lat="47.78314" lon="7.08551">
        <ele>389.3</ele>
        <time>2024-10-13T12:18:42Z</time>
      </trkpt>
      <trkpt lat="47.78319" lon="7.08562">
        <ele>388.2</ele>
        <time>2024-10-13T12:18:50Z</time>
      </trkpt>
      <trkpt lat="47.78324" lon="7.08574">
        <ele>387</ele>
        <time>2024-10-13T12:18:58Z</time>
      </trkpt>
      <trkpt lat="47.78328" lon="7.08587">
        <ele>385.8</ele>
        <time>2024-10-13T12:19:06Z</time>
      </trkpt>
      <trkpt lat="47.7833" lon="7.08593">
        <ele>385.2</ele>
        <time>2024-10-13T12:19:15Z</time>
      </trkpt>
      <trkpt lat="47.7833" lon="7.08593">
        <ele>385.2</ele>
        <time>2024-10-13T12:19:16Z</time>
      </trkpt>
      <trkpt lat="47.78332" lon="7.08595">
        <ele>384.9</ele>
        <time>2024-10-13T12:19:20Z</time>
      </trkpt>
      <trkpt lat="47.78333" lon="7.08596">
        <ele>384.8</ele>
        <time>2024-10-13T12:19:21Z</time>
      </trkpt>
      <trkpt lat="47.78334" lon="7.08597">
        <ele>384.6</ele>
        <time>2024-10-13T12:19:22Z</time>
      </trkpt>
      <trkpt lat="47.78341" lon="7.08608">
        <ele>383.3</ele>
        <time>2024-10-13T12:19:30Z</time>
      </trkpt>
      <trkpt lat="47.78349" lon="7.08617">
        <ele>382.2</ele>
        <time>2024-10-13T12:19:37Z</time>
      </trkpt>
      <trkpt lat="47.78356" lon="7.08627">
        <ele>381.2</ele>
        <time>2024-10-13T12:19:45Z</time>
      </trkpt>
      <trkpt lat="47.78364" lon="7.08634">
        <ele>380.3</ele>
        <time>2024-10-13T12:19:54Z</time>
      </trkpt>
      <trkpt lat="47.78372" lon="7.08639">
        <ele>379.4</ele>
        <time>2024-10-13T12:20:02Z</time>
      </trkpt>
      <trkpt lat="47.7838" lon="7.08647">
        <ele>378.5</ele>
        <time>2024-10-13T12:20:10Z</time>
      </trkpt>
      <trkpt lat="47.78388" lon="7.08656">
        <ele>377.6</ele>
        <time>2024-10-13T12:20:19Z</time>
      </trkpt>
      <trkpt lat="47.78395" lon="7.08665">
        <ele>376.8</ele>
        <time>2024-10-13T12:20:28Z</time>
      </trkpt>
      <trkpt lat="47.78402" lon="7.08675">
        <ele>376</ele>
        <time>2024-10-13T12:20:36Z</time>
      </trkpt>
      <trkpt lat="47.7841" lon="7.08682">
        <ele>375.4</ele>
        <time>2024-10-13T12:20:44Z</time>
      </trkpt>
      <trkpt lat="47.78418" lon="7.0869">
        <ele>375</ele>
        <time>2024-10-13T12:20:52Z</time>
      </trkpt>
      <trkpt lat="47.78426" lon="7.08697">
        <ele>374.7</ele>
        <time>2024-10-13T12:20:59Z</time>
      </trkpt>
      <trkpt lat="47.78433" lon="7.08707">
        <ele>374.5</ele>
        <time>2024-10-13T12:21:07Z</time>
      </trkpt>
      <trkpt lat="47.78437" lon="7.08719">
        <ele>374.4</ele>
        <time>2024-10-13T12:21:14Z</time>
      </trkpt>
      <trkpt lat="47.78445" lon="7.08727">
        <ele>374.9</ele>
        <time>2024-10-13T12:21:21Z</time>
      </trkpt>
      <trkpt lat="47.78454" lon="7.0873">
        <ele>375.4</ele>
        <time>2024-10-13T12:21:28Z</time>
      </trkpt>
      <trkpt lat="47.78462" lon="7.08738">
        <ele>376</ele>
        <time>2024-10-13T12:21:36Z</time>
      </trkpt>
      <trkpt lat="47.78469" lon="7.08747">
        <ele>376.6</ele>
        <time>2024-10-13T12:21:43Z</time>
      </trkpt>
      <trkpt lat="47.78475" lon="7.08757">
        <ele>377.2</ele>
        <time>2024-10-13T12:21:50Z</time>
      </trkpt>
      <trkpt lat="47.78477" lon="7.08771">
        <ele>377.8</ele>
        <time>2024-10-13T12:21:57Z</time>
      </trkpt>
      <trkpt lat="47.78475" lon="7.08786">
        <ele>378.4</ele>
        <time>2024-10-13T12:22:05Z</time>
      </trkpt>
      <trkpt lat="47.78471" lon="7.08799">
        <ele>378.9</ele>
        <time>2024-10-13T12:22:13Z</time>
      </trkpt>
      <trkpt lat="47.78467" lon="7.08811">
        <ele>379.3</ele>
        <time>2024-10-13T12:22:20Z</time>
      </trkpt>
      <trkpt lat="47.78463" lon="7.08824">
        <ele>379.8</ele>
        <time>2024-10-13T12:22:27Z</time>
      </trkpt>
      <trkpt lat="47.7846" lon="7.08836">
        <ele>380.3</ele>
        <time>2024-10-13T12:22:34Z</time>
      </trkpt>
      <trkpt lat="47.78457" lon="7.08849">
        <ele>380.7</ele>
        <time>2024-10-13T12:22:41Z</time>
      </trkpt>
      <trkpt lat="47.78453" lon="7.08862">
        <ele>381.3</ele>
        <time>2024-10-13T12:22:48Z</time>
      </trkpt>
      <trkpt lat="47.7845" lon="7.08875">
        <ele>381.8</ele>
        <time>2024-10-13T12:22:55Z</time>
      </trkpt>
      <trkpt lat="47.78446" lon="7.08888">
        <ele>382.4</ele>
        <time>2024-10-13T12:23:02Z</time>
      </trkpt>
      <trkpt lat="47.78443" lon="7.08901">
        <ele>383</ele>
        <time>2024-10-13T12:23:09Z</time>
      </trkpt>
      <trkpt lat="47.78439" lon="7.08913">
        <ele>383.8</ele>
        <time>2024-10-13T12:23:16Z</time>
      </trkpt>
      <trkpt lat="47.78435" lon="7.08926">
        <ele>384.6</ele>
        <time>2024-10-13T12:23:23Z</time>
      </trkpt>
      <trkpt lat="47.7843" lon="7.08938">
        <ele>385.4</ele>
        <time>2024-10-13T12:23:30Z</time>
      </trkpt>
      <trkpt lat="47.78427" lon="7.0895">
        <ele>386.1</ele>
        <time>2024-10-13T12:23:37Z</time>
      </trkpt>
      <trkpt lat="47.78423" lon="7.08964">
        <ele>386.8</ele>
        <time>2024-10-13T12:23:45Z</time>
      </trkpt>
      <trkpt lat="47.78419" lon="7.08977">
        <ele>387.5</ele>
        <time>2024-10-13T12:23:53Z</time>
      </trkpt>
      <trkpt lat="47.78414" lon="7.08991">
        <ele>388</ele>
        <time>2024-10-13T12:24:01Z</time>
      </trkpt>
      <trkpt lat="47.78409" lon="7.09003">
        <ele>388.5</ele>
        <time>2024-10-13T12:24:09Z</time>
      </trkpt>
      <trkpt lat="47.78406" lon="7.09016">
        <ele>389.1</ele>
        <time>2024-10-13T12:24:17Z</time>
      </trkpt>
      <trkpt lat="47.78402" lon="7.09028">
        <ele>389.6</ele>
        <time>2024-10-13T12:24:25Z</time>
      </trkpt>
      <trkpt lat="47.78405" lon="7.09037">
        <ele>390.8</ele>
        <time>2024-10-13T12:24:40Z</time>
      </trkpt>
      <trkpt lat="47.78405" lon="7.09037">
        <ele>390.8</ele>
        <time>2024-10-13T12:24:41Z</time>
      </trkpt>
      <trkpt lat="47.78408" lon="7.0904">
        <ele>391.5</ele>
        <time>2024-10-13T12:24:45Z</time>
      </trkpt>
      <trkpt lat="47.78409" lon="7.09041">
        <ele>391.8</ele>
        <time>2024-10-13T12:24:46Z</time>
      </trkpt>
      <trkpt lat="47.7841" lon="7.09042">
        <ele>392.1</ele>
        <time>2024-10-13T12:24:47Z</time>
      </trkpt>
      <trkpt lat="47.78418" lon="7.0905">
        <ele>394.5</ele>
        <time>2024-10-13T12:24:56Z</time>
      </trkpt>
      <trkpt lat="47.78428" lon="7.09051">
        <ele>397.1</ele>
        <time>2024-10-13T12:25:05Z</time>
      </trkpt>
      <trkpt lat="47.78437" lon="7.09056">
        <ele>399.5</ele>
        <time>2024-10-13T12:25:14Z</time>
      </trkpt>
      <trkpt lat="47.78443" lon="7.09067">
        <ele>400.2</ele>
        <time>2024-10-13T12:25:24Z</time>
      </trkpt>
      <trkpt lat="47.78452" lon="7.09073">
        <ele>401.1</ele>
        <time>2024-10-13T12:25:35Z</time>
      </trkpt>
      <trkpt lat="47.78461" lon="7.09074">
        <ele>402</ele>
        <time>2024-10-13T12:25:43Z</time>
      </trkpt>
      <trkpt lat="47.78471" lon="7.0908">
        <ele>403.3</ele>
        <time>2024-10-13T12:25:50Z</time>
      </trkpt>
      <trkpt lat="47.7848" lon="7.09081">
        <ele>404.7</ele>
        <time>2024-10-13T12:25:59Z</time>
      </trkpt>
      <trkpt lat="47.7849" lon="7.09078">
        <ele>406.4</ele>
        <time>2024-10-13T12:26:12Z</time>
      </trkpt>
      <trkpt lat="47.78499" lon="7.09075">
        <ele>408.1</ele>
        <time>2024-10-13T12:26:23Z</time>
      </trkpt>
      <trkpt lat="47.78509" lon="7.0907">
        <ele>409.8</ele>
        <time>2024-10-13T12:26:33Z</time>
      </trkpt>
      <trkpt lat="47.78517" lon="7.09064">
        <ele>411.4</ele>
        <time>2024-10-13T12:26:41Z</time>
      </trkpt>
      <trkpt lat="47.78525" lon="7.09057">
        <ele>413</ele>
        <time>2024-10-13T12:26:51Z</time>
      </trkpt>
      <trkpt lat="47.78534" lon="7.09051">
        <ele>414.5</ele>
        <time>2024-10-13T12:27:03Z</time>
      </trkpt>
      <trkpt lat="47.78542" lon="7.09045">
        <ele>415.9</ele>
        <time>2024-10-13T12:27:16Z</time>
      </trkpt>
      <trkpt lat="47.78551" lon="7.09039">
        <ele>417.1</ele>
        <time>2024-10-13T12:27:25Z</time>
      </trkpt>
      <trkpt lat="47.78561" lon="7.09038">
        <ele>418.3</ele>
        <time>2024-10-13T12:27:34Z</time>
      </trkpt>
      <trkpt lat="47.7857" lon="7.0904">
        <ele>419.3</ele>
        <time>2024-10-13T12:27:44Z</time>
      </trkpt>
      <trkpt lat="47.78579" lon="7.09034">
        <ele>419.9</ele>
        <time>2024-10-13T12:27:54Z</time>
      </trkpt>
      <trkpt lat="47.78582" lon="7.09021">
        <ele>420.7</ele>
        <time>2024-10-13T12:28:03Z</time>
      </trkpt>
      <trkpt lat="47.78589" lon="7.0901">
        <ele>421.5</ele>
        <time>2024-10-13T12:28:11Z</time>
      </trkpt>
      <trkpt lat="47.78595" lon="7.08999">
        <ele>422.3</ele>
        <time>2024-10-13T12:28:19Z</time>
      </trkpt>
      <trkpt lat="47.786" lon="7.08986">
        <ele>423.2</ele>
        <time>2024-10-13T12:28:27Z</time>
      </trkpt>
      <trkpt lat="47.78605" lon="7.08975">
        <ele>424</ele>
        <time>2024-10-13T12:28:34Z</time>
      </trkpt>
      <trkpt lat="47.7861" lon="7.08962">
        <ele>424.9</ele>
        <time>2024-10-13T12:28:43Z</time>
      </trkpt>
      <trkpt lat="47.78614" lon="7.08949">
        <ele>425.8</ele>
        <time>2024-10-13T12:28:51Z</time>
      </trkpt>
      <trkpt lat="47.78618" lon="7.08936">
        <ele>426.9</ele>
        <time>2024-10-13T12:29:00Z</time>
      </trkpt>
      <trkpt lat="47.78625" lon="7.08925">
        <ele>428</ele>
        <time>2024-10-13T12:29:07Z</time>
      </trkpt>
      <trkpt lat="47.78631" lon="7.08914">
        <ele>429</ele>
        <time>2024-10-13T12:29:18Z</time>
      </trkpt>
      <trkpt lat="47.78631" lon="7.08907">
        <ele>429.5</ele>
        <time>2024-10-13T12:29:27Z</time>
      </trkpt>
      <trkpt lat="47.78631" lon="7.08907">
        <ele>429.5</ele>
        <time>2024-10-13T12:29:28Z</time>
      </trkpt>
      <trkpt lat="47.78632" lon="7.08907">
        <ele>429.5</ele>
        <time>2024-10-13T12:29:29Z</time>
      </trkpt>
      <trkpt lat="47.78631" lon="7.0891">
        <ele>429.4</ele>
        <time>2024-10-13T12:29:35Z</time>
      </trkpt>
      <trkpt lat="47.78631" lon="7.08911">
        <ele>429.4</ele>
        <time>2024-10-13T12:29:36Z</time>
      </trkpt>
      <trkpt lat="47.7864" lon="7.08918">
        <ele>429.5</ele>
        <time>2024-10-13T12:29:44Z</time>
      </trkpt>
      <trkpt lat="47.78647" lon="7.08928">
        <ele>429.8</ele>
        <time>2024-10-13T12:29:51Z</time>
      </trkpt>
      <trkpt lat="47.78655" lon="7.08935">
        <ele>430.3</ele>
        <time>2024-10-13T12:30:00Z</time>
      </trkpt>
      <trkpt lat="47.78665" lon="7.08936">
        <ele>431</ele>
        <time>2024-10-13T12:30:08Z</time>
      </trkpt>
      <trkpt lat="47.78671" lon="7.08925">
        <ele>432</ele>
        <time>2024-10-13T12:30:18Z</time>
      </trkpt>
      <trkpt lat="47.78678" lon="7.08915">
        <ele>433.4</ele>
        <time>2024-10-13T12:30:25Z</time>
      </trkpt>
      <trkpt lat="47.78684" lon="7.08903">
        <ele>434.8</ele>
        <time>2024-10-13T12:30:32Z</time>
      </trkpt>
      <trkpt lat="47.78689" lon="7.08891">
        <ele>436.4</ele>
        <time>2024-10-13T12:30:41Z</time>
      </trkpt>
      <trkpt lat="47.7869" lon="7.08878">
        <ele>438.2</ele>
        <time>2024-10-13T12:30:50Z</time>
      </trkpt>
      <trkpt lat="47.78694" lon="7.08865">
        <ele>440.1</ele>
        <time>2024-10-13T12:30:58Z</time>
      </trkpt>
      <trkpt lat="47.787" lon="7.08854">
        <ele>442.1</ele>
        <time>2024-10-13T12:31:07Z</time>
      </trkpt>
      <trkpt lat="47.78703" lon="7.0884">
        <ele>444</ele>
        <time>2024-10-13T12:31:15Z</time>
      </trkpt>
      <trkpt lat="47.78708" lon="7.08828">
        <ele>445.7</ele>
        <time>2024-10-13T12:31:23Z</time>
      </trkpt>
      <trkpt lat="47.78712" lon="7.08815">
        <ele>447.7</ele>
        <time>2024-10-13T12:31:33Z</time>
      </trkpt>
      <trkpt lat="47.78718" lon="7.08805">
        <ele>449.7</ele>
        <time>2024-10-13T12:31:42Z</time>
      </trkpt>
      <trkpt lat="47.78725" lon="7.08793">
        <ele>451.5</ele>
        <time>2024-10-13T12:31:51Z</time>
      </trkpt>
      <trkpt lat="47.7873" lon="7.08783">
        <ele>453</ele>
        <time>2024-10-13T12:32:00Z</time>
      </trkpt>
      <trkpt lat="47.78739" lon="7.08775">
        <ele>454.5</ele>
        <time>2024-10-13T12:32:10Z</time>
      </trkpt>
      <trkpt lat="47.78749" lon="7.08773">
        <ele>456</ele>
        <time>2024-10-13T12:32:20Z</time>
      </trkpt>
      <trkpt lat="47.78758" lon="7.08766">
        <ele>457.4</ele>
        <time>2024-10-13T12:32:32Z</time>
      </trkpt>
      <trkpt lat="47.78766" lon="7.08761">
        <ele>458.5</ele>
        <time>2024-10-13T12:32:40Z</time>
      </trkpt>
      <trkpt lat="47.78775" lon="7.08757">
        <ele>459.6</ele>
        <time>2024-10-13T12:32:51Z</time>
      </trkpt>
      <trkpt lat="47.78784" lon="7.08752">
        <ele>460.7</ele>
        <time>2024-10-13T12:33:00Z</time>
      </trkpt>
      <trkpt lat="47.78792" lon="7.08745">
        <ele>461.6</ele>
        <time>2024-10-13T12:33:10Z</time>
      </trkpt>
      <trkpt lat="47.78799" lon="7.08737">
        <ele>462.5</ele>
        <time>2024-10-13T12:33:16Z</time>
      </trkpt>
      <trkpt lat="47.78807" lon="7.08726">
        <ele>463.5</ele>
        <time>2024-10-13T12:33:25Z</time>
      </trkpt>
      <trkpt lat="47.78814" lon="7.08716">
        <ele>464.3</ele>
        <time>2024-10-13T12:33:32Z</time>
      </trkpt>
      <trkpt lat="47.78823" lon="7.08711">
        <ele>465</ele>
        <time>2024-10-13T12:33:40Z</time>
      </trkpt>
      <trkpt lat="47.78831" lon="7.08704">
        <ele>465.6</ele>
        <time>2024-10-13T12:33:50Z</time>
      </trkpt>
      <trkpt lat="47.78838" lon="7.08695">
        <ele>466.2</ele>
        <time>2024-10-13T12:33:58Z</time>
      </trkpt>
      <trkpt lat="47.78846" lon="7.08687">
        <ele>466.7</ele>
        <time>2024-10-13T12:34:04Z</time>
      </trkpt>
      <trkpt lat="47.78855" lon="7.08681">
        <ele>467.3</ele>
        <time>2024-10-13T12:34:12Z</time>
      </trkpt>
      <trkpt lat="47.78863" lon="7.08672">
        <ele>467.7</ele>
        <time>2024-10-13T12:34:19Z</time>
      </trkpt>
      <trkpt lat="47.78871" lon="7.08663">
        <ele>468.1</ele>
        <time>2024-10-13T12:34:26Z</time>
      </trkpt>
      <trkpt lat="47.78877" lon="7.08653">
        <ele>468.4</ele>
        <time>2024-10-13T12:34:34Z</time>
      </trkpt>
      <trkpt lat="47.78883" lon="7.0864">
        <ele>468.8</ele>
        <time>2024-10-13T12:34:43Z</time>
      </trkpt>
      <trkpt lat="47.7889" lon="7.0863">
        <ele>469.1</ele>
        <time>2024-10-13T12:34:50Z</time>
      </trkpt>
      <trkpt lat="47.78896" lon="7.08617">
        <ele>469.5</ele>
        <time>2024-10-13T12:34:59Z</time>
      </trkpt>
      <trkpt lat="47.78903" lon="7.08607">
        <ele>469.8</ele>
        <time>2024-10-13T12:35:07Z</time>
      </trkpt>
      <trkpt lat="47.78906" lon="7.08594">
        <ele>470.2</ele>
        <time>2024-10-13T12:35:17Z</time>
      </trkpt>
      <trkpt lat="47.78914" lon="7.08586">
        <ele>470.5</ele>
        <time>2024-10-13T12:35:24Z</time>
      </trkpt>
      <trkpt lat="47.7892" lon="7.08577">
        <ele>470.8</ele>
        <time>2024-10-13T12:35:32Z</time>
      </trkpt>
      <trkpt lat="47.78926" lon="7.08564">
        <ele>471.1</ele>
        <time>2024-10-13T12:35:41Z</time>
      </trkpt>
      <trkpt lat="47.78933" lon="7.08554">
        <ele>471.4</ele>
        <time>2024-10-13T12:35:49Z</time>
      </trkpt>
      <trkpt lat="47.78939" lon="7.08544">
        <ele>471.6</ele>
        <time>2024-10-13T12:35:56Z</time>
      </trkpt>
      <trkpt lat="47.78944" lon="7.08532">
        <ele>471.8</ele>
        <time>2024-10-13T12:36:04Z</time>
      </trkpt>
      <trkpt lat="47.78952" lon="7.08524">
        <ele>472</ele>
        <time>2024-10-13T12:36:12Z</time>
      </trkpt>
      <trkpt lat="47.78961" lon="7.0852">
        <ele>472.2</ele>
        <time>2024-10-13T12:36:20Z</time>
      </trkpt>
      <trkpt lat="47.7897" lon="7.08515">
        <ele>472.3</ele>
        <time>2024-10-13T12:36:29Z</time>
      </trkpt>
      <trkpt lat="47.78979" lon="7.08509">
        <ele>472.5</ele>
        <time>2024-10-13T12:36:34Z</time>
      </trkpt>
      <trkpt lat="47.78986" lon="7.085">
        <ele>472.6</ele>
        <time>2024-10-13T12:36:44Z</time>
      </trkpt>
      <trkpt lat="47.78995" lon="7.08494">
        <ele>472.7</ele>
        <time>2024-10-13T12:36:53Z</time>
      </trkpt>
      <trkpt lat="47.79002" lon="7.08487">
        <ele>472.9</ele>
        <time>2024-10-13T12:37:02Z</time>
      </trkpt>
      <trkpt lat="47.79001" lon="7.08486">
        <ele>472.9</ele>
        <time>2024-10-13T12:37:03Z</time>
      </trkpt>
      <trkpt lat="47.79001" lon="7.08486">
        <ele>472.9</ele>
        <time>2024-10-13T12:37:04Z</time>
      </trkpt>
      <trkpt lat="47.79002" lon="7.08486">
        <ele>472.9</ele>
        <time>2024-10-13T12:37:13Z</time>
      </trkpt>
      <trkpt lat="47.79001" lon="7.08484">
        <ele>472.9</ele>
        <time>2024-10-13T12:37:14Z</time>
      </trkpt>
      <trkpt lat="47.78999" lon="7.08469">
        <ele>473.1</ele>
        <time>2024-10-13T12:37:22Z</time>
      </trkpt>
      <trkpt lat="47.78998" lon="7.08455">
        <ele>473.1</ele>
        <time>2024-10-13T12:37:29Z</time>
      </trkpt>
      <trkpt lat="47.79002" lon="7.08443">
        <ele>472.9</ele>
        <time>2024-10-13T12:37:40Z</time>
      </trkpt>
      <trkpt lat="47.7901" lon="7.08436">
        <ele>472.7</ele>
        <time>2024-10-13T12:37:48Z</time>
      </trkpt>
      <trkpt lat="47.79019" lon="7.08431">
        <ele>472.6</ele>
        <time>2024-10-13T12:37:54Z</time>
      </trkpt>
      <trkpt lat="47.79028" lon="7.08425">
        <ele>472.4</ele>
        <time>2024-10-13T12:38:01Z</time>
      </trkpt>
      <trkpt lat="47.79035" lon="7.08417">
        <ele>472.2</ele>
        <time>2024-10-13T12:38:12Z</time>
      </trkpt>
      <trkpt lat="47.79045" lon="7.08414">
        <ele>472</ele>
        <time>2024-10-13T12:38:20Z</time>
      </trkpt>
      <trkpt lat="47.79053" lon="7.08406">
        <ele>471.8</ele>
        <time>2024-10-13T12:38:26Z</time>
      </trkpt>
      <trkpt lat="47.79059" lon="7.08396">
        <ele>471.5</ele>
        <time>2024-10-13T12:38:35Z</time>
      </trkpt>
      <trkpt lat="47.79064" lon="7.08383">
        <ele>471.2</ele>
        <time>2024-10-13T12:38:43Z</time>
      </trkpt>
      <trkpt lat="47.7907" lon="7.08373">
        <ele>470.9</ele>
        <time>2024-10-13T12:38:49Z</time>
      </trkpt>
      <trkpt lat="47.79076" lon="7.08363">
        <ele>470.5</ele>
        <time>2024-10-13T12:38:57Z</time>
      </trkpt>
      <trkpt lat="47.79079" lon="7.0835">
        <ele>470</ele>
        <time>2024-10-13T12:39:05Z</time>
      </trkpt>
      <trkpt lat="47.79084" lon="7.08339">
        <ele>469.4</ele>
        <time>2024-10-13T12:39:20Z</time>
      </trkpt>
      <trkpt lat="47.79093" lon="7.08338">
        <ele>469</ele>
        <time>2024-10-13T12:39:27Z</time>
      </trkpt>
      <trkpt lat="47.79102" lon="7.08331">
        <ele>468.7</ele>
        <time>2024-10-13T12:39:36Z</time>
      </trkpt>
      <trkpt lat="47.79112" lon="7.08325">
        <ele>468.5</ele>
        <time>2024-10-13T12:39:44Z</time>
      </trkpt>
      <trkpt lat="47.79121" lon="7.08323">
        <ele>468.4</ele>
        <time>2024-10-13T12:39:51Z</time>
      </trkpt>
      <trkpt lat="47.7913" lon="7.08318">
        <ele>468.4</ele>
        <time>2024-10-13T12:39:58Z</time>
      </trkpt>
      <trkpt lat="47.79139" lon="7.08312">
        <ele>468.6</ele>
        <time>2024-10-13T12:40:08Z</time>
      </trkpt>
      <trkpt lat="47.79147" lon="7.08305">
        <ele>469</ele>
        <time>2024-10-13T12:40:17Z</time>
      </trkpt>
      <trkpt lat="47.79156" lon="7.08301">
        <ele>469.5</ele>
        <time>2024-10-13T12:40:26Z</time>
      </trkpt>
      <trkpt lat="47.79165" lon="7.08298">
        <ele>470.1</ele>
        <time>2024-10-13T12:40:34Z</time>
      </trkpt>
      <trkpt lat="47.79174" lon="7.08294">
        <ele>470.7</ele>
        <time>2024-10-13T12:40:42Z</time>
      </trkpt>
      <trkpt lat="47.79182" lon="7.08289">
        <ele>471.3</ele>
        <time>2024-10-13T12:40:53Z</time>
      </trkpt>
      <trkpt lat="47.79192" lon="7.08286">
        <ele>471.9</ele>
        <time>2024-10-13T12:41:00Z</time>
      </trkpt>
      <trkpt lat="47.792" lon="7.08281">
        <ele>472.4</ele>
        <time>2024-10-13T12:41:08Z</time>
      </trkpt>
      <trkpt lat="47.79209" lon="7.08276">
        <ele>472.9</ele>
        <time>2024-10-13T12:41:16Z</time>
      </trkpt>
      <trkpt lat="47.79219" lon="7.0827">
        <ele>473.3</ele>
        <time>2024-10-13T12:41:25Z</time>
      </trkpt>
      <trkpt lat="47.79228" lon="7.08269">
        <ele>473.6</ele>
        <time>2024-10-13T12:41:32Z</time>
      </trkpt>
      <trkpt lat="47.79238" lon="7.08271">
        <ele>473.8</ele>
        <time>2024-10-13T12:41:41Z</time>
      </trkpt>
      <trkpt lat="47.79247" lon="7.08274">
        <ele>473.8</ele>
        <time>2024-10-13T12:41:51Z</time>
      </trkpt>
      <trkpt lat="47.79257" lon="7.0827">
        <ele>473.6</ele>
        <time>2024-10-13T12:42:00Z</time>
      </trkpt>
      <trkpt lat="47.79266" lon="7.08266">
        <ele>473.4</ele>
        <time>2024-10-13T12:42:07Z</time>
      </trkpt>
      <trkpt lat="47.79275" lon="7.08264">
        <ele>473.1</ele>
        <time>2024-10-13T12:42:16Z</time>
      </trkpt>
      <trkpt lat="47.79284" lon="7.08259">
        <ele>472.9</ele>
        <time>2024-10-13T12:42:23Z</time>
      </trkpt>
      <trkpt lat="47.79294" lon="7.08256">
        <ele>472.8</ele>
        <time>2024-10-13T12:42:34Z</time>
      </trkpt>
      <trkpt lat="47.79304" lon="7.08259">
        <ele>472.9</ele>
        <time>2024-10-13T12:42:41Z</time>
      </trkpt>
      <trkpt lat="47.79313" lon="7.08256">
        <ele>473.1</ele>
        <time>2024-10-13T12:42:51Z</time>
      </trkpt>
      <trkpt lat="47.79322" lon="7.0826">
        <ele>473.4</ele>
        <time>2024-10-13T12:42:59Z</time>
      </trkpt>
      <trkpt lat="47.79331" lon="7.08253">
        <ele>473.7</ele>
        <time>2024-10-13T12:43:09Z</time>
      </trkpt>
      <trkpt lat="47.7934" lon="7.08248">
        <ele>473.9</ele>
        <time>2024-10-13T12:43:16Z</time>
      </trkpt>
      <trkpt lat="47.79349" lon="7.08241">
        <ele>474.2</ele>
        <time>2024-10-13T12:43:23Z</time>
      </trkpt>
      <trkpt lat="47.79356" lon="7.08232">
        <ele>474.4</ele>
        <time>2024-10-13T12:43:31Z</time>
      </trkpt>
      <trkpt lat="47.79366" lon="7.08226">
        <ele>474.6</ele>
        <time>2024-10-13T12:43:39Z</time>
      </trkpt>
      <trkpt lat="47.79376" lon="7.08225">
        <ele>474.9</ele>
        <time>2024-10-13T12:43:46Z</time>
      </trkpt>
      <trkpt lat="47.79385" lon="7.08224">
        <ele>475.2</ele>
        <time>2024-10-13T12:43:53Z</time>
      </trkpt>
      <trkpt lat="47.79394" lon="7.08221">
        <ele>475.4</ele>
        <time>2024-10-13T12:44:05Z</time>
      </trkpt>
      <trkpt lat="47.79403" lon="7.08225">
        <ele>475.6</ele>
        <time>2024-10-13T12:44:12Z</time>
      </trkpt>
      <trkpt lat="47.79412" lon="7.08219">
        <ele>475.5</ele>
        <time>2024-10-13T12:44:20Z</time>
      </trkpt>
      <trkpt lat="47.79422" lon="7.0822">
        <ele>475.3</ele>
        <time>2024-10-13T12:44:27Z</time>
      </trkpt>
      <trkpt lat="47.79431" lon="7.08219">
        <ele>475.1</ele>
        <time>2024-10-13T12:44:34Z</time>
      </trkpt>
      <trkpt lat="47.79443" lon="7.08217">
        <ele>474.6</ele>
        <time>2024-10-13T12:44:42Z</time>
      </trkpt>
      <trkpt lat="47.79447" lon="7.08216">
        <ele>474.5</ele>
        <time>2024-10-13T12:44:48Z</time>
      </trkpt>
      <trkpt lat="47.7945" lon="7.08215">
        <ele>474.3</ele>
        <time>2024-10-13T12:44:55Z</time>
      </trkpt>
      <trkpt lat="47.79453" lon="7.08214">
        <ele>474.1</ele>
        <time>2024-10-13T12:45:03Z</time>
      </trkpt>
      <trkpt lat="47.79456" lon="7.08213">
        <ele>473.9</ele>
        <time>2024-10-13T12:45:13Z</time>
      </trkpt>
      <trkpt lat="47.7946" lon="7.08212">
        <ele>473.6</ele>
        <time>2024-10-13T12:45:22Z</time>
      </trkpt>
      <trkpt lat="47.79463" lon="7.08212">
        <ele>473.4</ele>
        <time>2024-10-13T12:45:30Z</time>
      </trkpt>
      <trkpt lat="47.79466" lon="7.08211">
        <ele>473.1</ele>
        <time>2024-10-13T12:45:33Z</time>
      </trkpt>
      <trkpt lat="47.79469" lon="7.0821">
        <ele>472.9</ele>
        <time>2024-10-13T12:45:34Z</time>
      </trkpt>
      <trkpt lat="47.79473" lon="7.08209">
        <ele>472.6</ele>
        <time>2024-10-13T12:45:35Z</time>
      </trkpt>
      <trkpt lat="47.79476" lon="7.08208">
        <ele>472.4</ele>
        <time>2024-10-13T12:45:36Z</time>
      </trkpt>
      <trkpt lat="47.79479" lon="7.08207">
        <ele>472.3</ele>
        <time>2024-10-13T12:45:37Z</time>
      </trkpt>
      <trkpt lat="47.79482" lon="7.08206">
        <ele>472.1</ele>
        <time>2024-10-13T12:46:18Z</time>
      </trkpt>
      <trkpt lat="47.79486" lon="7.08206">
        <ele>472</ele>
        <time>2024-10-13T12:46:18Z</time>
      </trkpt>
      <trkpt lat="47.79489" lon="7.08205">
        <ele>471.9</ele>
        <time>2024-10-13T12:46:18Z</time>
      </trkpt>
    </trkseg>
  </trk>
</gpx>